<?xml version="1.0" encoding="UTF-8"?>
<gpx version="1.1" creator="https://www.youtrack.es" xsi:schemaLocation="http://www.topografix.com/GPX/1/1 http://www.topografix.com/GPX/1/1/gpx.xsd http://www.garmin.com/xmlschemas/GpxExtensions/v3 http://www.garmin.com/xmlschemas/GpxExtensionsv3.xsd http://www.garmin.com/xmlschemas/TrackPointExtension/v1 http://www.garmin.com/xmlschemas/TrackPointExtensionv1.xsd" xmlns:gpxtpx="http://www.garmin.com/xmlschemas/TrackPointExtension/v1" xmlns:gpxx="http://www.garmin.com/xmlschemas/GpxExtensions/v3" xmlns:xsi="http://www.w3.org/2001/XMLSchema-instance">
  <metadata>
    <link href="https://www.youtrack.es">
      <text>YouTrack.es</text>
    </link>
    <time>2026-05-08T14:48:17Z</time>
  </metadata>
  <trk>
    <src>https://www.youtrack.es</src>
    <link href="https://www.youtrack.es/ruta/20899-bolonia">
      <text>YouTrack.es</text>
    </link>
    <trkseg>
      <trkpt lat="36.08875609003007411956787109375" lon="-5.77344593591988086700439453125">
        <ele>45.59999847412109375</ele>
        <time>2021-04-04T10:14:22.000Z</time>
      </trkpt>
      <trkpt lat="36.088840663433074951171875" lon="-5.77364894561469554901123046875">
        <ele>46.799999237060546875</ele>
        <time>2021-04-04T10:14:41.000Z</time>
      </trkpt>
      <trkpt lat="36.08888315968215465545654296875" lon="-5.7738620974123477935791015625">
        <ele>46.59999847412109375</ele>
        <time>2021-04-04T10:14:57.000Z</time>
      </trkpt>
      <trkpt lat="36.08883622102439403533935546875" lon="-5.7740418054163455963134765625">
        <ele>47</ele>
        <time>2021-04-04T10:15:11.000Z</time>
      </trkpt>
      <trkpt lat="36.08880151994526386260986328125" lon="-5.77414331026375293731689453125">
        <ele>46.799999237060546875</ele>
        <time>2021-04-04T10:15:22.000Z</time>
      </trkpt>
      <trkpt lat="36.08875910751521587371826171875" lon="-5.77432838268578052520751953125">
        <ele>47.200000762939453125</ele>
        <time>2021-04-04T10:15:37.000Z</time>
      </trkpt>
      <trkpt lat="36.08873580582439899444580078125" lon="-5.774409770965576171875">
        <ele>47.40000152587890625</ele>
        <time>2021-04-04T10:15:45.000Z</time>
      </trkpt>
      <trkpt lat="36.0887318663299083709716796875" lon="-5.7744186557829380035400390625">
        <ele>47.40000152587890625</ele>
        <time>2021-04-04T10:15:46.000Z</time>
      </trkpt>
      <trkpt lat="36.08872792683541774749755859375" lon="-5.77443055808544158935546875">
        <ele>47.40000152587890625</ele>
        <time>2021-04-04T10:15:47.000Z</time>
      </trkpt>
      <trkpt lat="36.0886151902377605438232421875" lon="-5.774480514228343963623046875">
        <ele>47.200000762939453125</ele>
        <time>2021-04-04T10:16:12.000Z</time>
      </trkpt>
      <trkpt lat="36.08855727128684520721435546875" lon="-5.7744379341602325439453125">
        <ele>47</ele>
        <time>2021-04-04T10:16:20.000Z</time>
      </trkpt>
      <trkpt lat="36.0884368233382701873779296875" lon="-5.7743767462670803070068359375">
        <ele>46.200000762939453125</ele>
        <time>2021-04-04T10:16:34.000Z</time>
      </trkpt>
      <trkpt lat="36.08826935291290283203125" lon="-5.77433492057025432586669921875">
        <ele>45.59999847412109375</ele>
        <time>2021-04-04T10:16:56.000Z</time>
      </trkpt>
      <trkpt lat="36.0882312990725040435791015625" lon="-5.7743440568447113037109375">
        <ele>45.59999847412109375</ele>
        <time>2021-04-04T10:17:00.000Z</time>
      </trkpt>
      <trkpt lat="36.08823138289153575897216796875" lon="-5.77449652366340160369873046875">
        <ele>45.200000762939453125</ele>
        <time>2021-04-04T10:17:19.000Z</time>
      </trkpt>
      <trkpt lat="36.08821093104779720306396484375" lon="-5.7745353318750858306884765625">
        <ele>45.200000762939453125</ele>
        <time>2021-04-04T10:17:23.000Z</time>
      </trkpt>
      <trkpt lat="36.08823121525347232818603515625" lon="-5.7746577076613903045654296875">
        <ele>44.40000152587890625</ele>
        <time>2021-04-04T10:17:34.000Z</time>
      </trkpt>
      <trkpt lat="36.08820204623043537139892578125" lon="-5.77471830882132053375244140625">
        <ele>44.200000762939453125</ele>
        <time>2021-04-04T10:17:42.000Z</time>
      </trkpt>
      <trkpt lat="36.08817807398736476898193359375" lon="-5.7747502438724040985107421875">
        <ele>44.200000762939453125</ele>
        <time>2021-04-04T10:17:46.000Z</time>
      </trkpt>
      <trkpt lat="36.088191568851470947265625" lon="-5.774835236370563507080078125">
        <ele>44.200000762939453125</ele>
        <time>2021-04-04T10:17:53.000Z</time>
      </trkpt>
      <trkpt lat="36.08824429102241992950439453125" lon="-5.77501921914517879486083984375">
        <ele>44.40000152587890625</ele>
        <time>2021-04-04T10:18:14.000Z</time>
      </trkpt>
      <trkpt lat="36.0883100889623165130615234375" lon="-5.775228850543498992919921875">
        <ele>44.59999847412109375</ele>
        <time>2021-04-04T10:18:33.000Z</time>
      </trkpt>
      <trkpt lat="36.08837597072124481201171875" lon="-5.7754462771117687225341796875">
        <ele>44.799999237060546875</ele>
        <time>2021-04-04T10:18:59.000Z</time>
      </trkpt>
      <trkpt lat="36.0884324647486209869384765625" lon="-5.7756360433995723724365234375">
        <ele>44</ele>
        <time>2021-04-04T10:19:23.000Z</time>
      </trkpt>
      <trkpt lat="36.08841343782842159271240234375" lon="-5.7756739296019077301025390625">
        <ele>43</ele>
        <time>2021-04-04T10:19:31.000Z</time>
      </trkpt>
      <trkpt lat="36.088410504162311553955078125" lon="-5.77571709640324115753173828125">
        <ele>42</ele>
        <time>2021-04-04T10:19:41.000Z</time>
      </trkpt>
      <trkpt lat="36.08842785470187664031982421875" lon="-5.77580493874847888946533203125">
        <ele>41</ele>
        <time>2021-04-04T10:19:54.000Z</time>
      </trkpt>
      <trkpt lat="36.08845777809619903564453125" lon="-5.7759525440633296966552734375">
        <ele>40.59999847412109375</ele>
        <time>2021-04-04T10:20:12.000Z</time>
      </trkpt>
      <trkpt lat="36.0884978435933589935302734375" lon="-5.77610719017684459686279296875">
        <ele>40.59999847412109375</ele>
        <time>2021-04-04T10:20:31.000Z</time>
      </trkpt>
      <trkpt lat="36.08852407895028591156005859375" lon="-5.776124708354473114013671875">
        <ele>41</ele>
        <time>2021-04-04T10:20:37.000Z</time>
      </trkpt>
      <trkpt lat="36.08854620717465877532958984375" lon="-5.77613267116248607635498046875">
        <ele>41.200000762939453125</ele>
        <time>2021-04-04T10:20:45.000Z</time>
      </trkpt>
      <trkpt lat="36.08854335732758045196533203125" lon="-5.776141472160816192626953125">
        <ele>41.200000762939453125</ele>
        <time>2021-04-04T10:20:46.000Z</time>
      </trkpt>
      <trkpt lat="36.08854268677532672882080078125" lon="-5.776189081370830535888671875">
        <ele>41.200000762939453125</ele>
        <time>2021-04-04T10:20:51.000Z</time>
      </trkpt>
      <trkpt lat="36.0885598696768283843994140625" lon="-5.77640944160521030426025390625">
        <ele>40.799999237060546875</ele>
        <time>2021-04-04T10:21:15.000Z</time>
      </trkpt>
      <trkpt lat="36.08858861960470676422119140625" lon="-5.7766137085855007171630859375">
        <ele>40.40000152587890625</ele>
        <time>2021-04-04T10:21:38.000Z</time>
      </trkpt>
      <trkpt lat="36.0885925590991973876953125" lon="-5.776722170412540435791015625">
        <ele>40.200000762939453125</ele>
        <time>2021-04-04T10:21:50.000Z</time>
      </trkpt>
      <trkpt lat="36.088632456958293914794921875" lon="-5.77679685316979885101318359375">
        <ele>40.799999237060546875</ele>
        <time>2021-04-04T10:22:20.000Z</time>
      </trkpt>
      <trkpt lat="36.088635139167308807373046875" lon="-5.7768299616873264312744140625">
        <ele>40.799999237060546875</ele>
        <time>2021-04-04T10:22:25.000Z</time>
      </trkpt>
      <trkpt lat="36.08863119967281818389892578125" lon="-5.7768547721207141876220703125">
        <ele>40.799999237060546875</ele>
        <time>2021-04-04T10:22:28.000Z</time>
      </trkpt>
      <trkpt lat="36.08862834982573986053466796875" lon="-5.77687731944024562835693359375">
        <ele>40.59999847412109375</ele>
        <time>2021-04-04T10:22:30.000Z</time>
      </trkpt>
      <trkpt lat="36.088628433644771575927734375" lon="-5.7769161276519298553466796875">
        <ele>40.59999847412109375</ele>
        <time>2021-04-04T10:22:34.000Z</time>
      </trkpt>
      <trkpt lat="36.08863614499568939208984375" lon="-5.7769587077200412750244140625">
        <ele>40.799999237060546875</ele>
        <time>2021-04-04T10:22:38.000Z</time>
      </trkpt>
      <trkpt lat="36.08863404951989650726318359375" lon="-5.7770002819597721099853515625">
        <ele>41</ele>
        <time>2021-04-04T10:22:42.000Z</time>
      </trkpt>
      <trkpt lat="36.0886430181562900543212890625" lon="-5.7772091589868068695068359375">
        <ele>40.799999237060546875</ele>
        <time>2021-04-04T10:23:03.000Z</time>
      </trkpt>
      <trkpt lat="36.08865492045879364013671875" lon="-5.77725769020617008209228515625">
        <ele>40.59999847412109375</ele>
        <time>2021-04-04T10:23:08.000Z</time>
      </trkpt>
      <trkpt lat="36.08865399844944477081298828125" lon="-5.777278058230876922607421875">
        <ele>40.40000152587890625</ele>
        <time>2021-04-04T10:23:10.000Z</time>
      </trkpt>
      <trkpt lat="36.088653244078159332275390625" lon="-5.77728786505758762359619140625">
        <ele>40.40000152587890625</ele>
        <time>2021-04-04T10:23:11.000Z</time>
      </trkpt>
      <trkpt lat="36.0886517353355884552001953125" lon="-5.777308903634548187255859375">
        <ele>40.40000152587890625</ele>
        <time>2021-04-04T10:23:13.000Z</time>
      </trkpt>
      <trkpt lat="36.08864326961338520050048828125" lon="-5.77749959193170070648193359375">
        <ele>40.200000762939453125</ele>
        <time>2021-04-04T10:23:35.000Z</time>
      </trkpt>
      <trkpt lat="36.088643856346607208251953125" lon="-5.77762699685990810394287109375">
        <ele>41</ele>
        <time>2021-04-04T10:23:47.000Z</time>
      </trkpt>
      <trkpt lat="36.0886426828801631927490234375" lon="-5.77764644287526607513427734375">
        <ele>41</ele>
        <time>2021-04-04T10:23:49.000Z</time>
      </trkpt>
      <trkpt lat="36.08863555826246738433837890625" lon="-5.7777013443410396575927734375">
        <ele>41.200000762939453125</ele>
        <time>2021-04-04T10:23:54.000Z</time>
      </trkpt>
      <trkpt lat="36.08863941393792629241943359375" lon="-5.7777504622936248779296875">
        <ele>41.200000762939453125</ele>
        <time>2021-04-04T10:23:59.000Z</time>
      </trkpt>
      <trkpt lat="36.08864276669919490814208984375" lon="-5.77779497019946575164794921875">
        <ele>41.40000152587890625</ele>
        <time>2021-04-04T10:24:04.000Z</time>
      </trkpt>
      <trkpt lat="36.08865651302039623260498046875" lon="-5.7778807170689105987548828125">
        <ele>41.40000152587890625</ele>
        <time>2021-04-04T10:24:21.000Z</time>
      </trkpt>
      <trkpt lat="36.08866321854293346405029296875" lon="-5.7779301702976226806640625">
        <ele>41.200000762939453125</ele>
        <time>2021-04-04T10:24:27.000Z</time>
      </trkpt>
      <trkpt lat="36.088690795004367828369140625" lon="-5.77805648557841777801513671875">
        <ele>40.59999847412109375</ele>
        <time>2021-04-04T10:24:41.000Z</time>
      </trkpt>
      <trkpt lat="36.0886943154036998748779296875" lon="-5.77807576395571231842041015625">
        <ele>40.59999847412109375</ele>
        <time>2021-04-04T10:24:43.000Z</time>
      </trkpt>
      <trkpt lat="36.0886969976127147674560546875" lon="-5.7780869118869304656982421875">
        <ele>40.59999847412109375</ele>
        <time>2021-04-04T10:24:44.000Z</time>
      </trkpt>
      <trkpt lat="36.0887057147920131683349609375" lon="-5.77812706120312213897705078125">
        <ele>40.59999847412109375</ele>
        <time>2021-04-04T10:24:48.000Z</time>
      </trkpt>
      <trkpt lat="36.0887053795158863067626953125" lon="-5.77813745476305484771728515625">
        <ele>40.799999237060546875</ele>
        <time>2021-04-04T10:24:49.000Z</time>
      </trkpt>
      <trkpt lat="36.08870982192456722259521484375" lon="-5.77816008590161800384521484375">
        <ele>40.59999847412109375</ele>
        <time>2021-04-04T10:24:51.000Z</time>
      </trkpt>
      <trkpt lat="36.08871719799935817718505859375" lon="-5.7782180048525333404541015625">
        <ele>40.799999237060546875</ele>
        <time>2021-04-04T10:24:57.000Z</time>
      </trkpt>
      <trkpt lat="36.088722646236419677734375" lon="-5.778236947953701019287109375">
        <ele>40.59999847412109375</ele>
        <time>2021-04-04T10:24:59.000Z</time>
      </trkpt>
      <trkpt lat="36.08872340060770511627197265625" lon="-5.77825765125453472137451171875">
        <ele>40.59999847412109375</ele>
        <time>2021-04-04T10:25:01.000Z</time>
      </trkpt>
      <trkpt lat="36.08872708864510059356689453125" lon="-5.7782840542495250701904296875">
        <ele>40.40000152587890625</ele>
        <time>2021-04-04T10:25:04.000Z</time>
      </trkpt>
      <trkpt lat="36.08874368481338024139404296875" lon="-5.77831783331930637359619140625">
        <ele>40.40000152587890625</ele>
        <time>2021-04-04T10:25:09.000Z</time>
      </trkpt>
      <trkpt lat="36.08875952661037445068359375" lon="-5.7783271372318267822265625">
        <ele>41.40000152587890625</ele>
        <time>2021-04-04T10:25:18.000Z</time>
      </trkpt>
      <trkpt lat="36.08877168036997318267822265625" lon="-5.77832906506955623626708984375">
        <ele>42</ele>
        <time>2021-04-04T10:25:21.000Z</time>
      </trkpt>
      <trkpt lat="36.08879707753658294677734375" lon="-5.7783219404518604278564453125">
        <ele>43</ele>
        <time>2021-04-04T10:25:27.000Z</time>
      </trkpt>
      <trkpt lat="36.08884694986045360565185546875" lon="-5.77827877365052700042724609375">
        <ele>42.799999237060546875</ele>
        <time>2021-04-04T10:25:36.000Z</time>
      </trkpt>
      <trkpt lat="36.0888163559138774871826171875" lon="-5.7782941125333309173583984375">
        <ele>41.799999237060546875</ele>
        <time>2021-04-04T10:25:45.000Z</time>
      </trkpt>
      <trkpt lat="36.08879833482205867767333984375" lon="-5.7783045060932636260986328125">
        <ele>41.200000762939453125</ele>
        <time>2021-04-04T10:26:11.000Z</time>
      </trkpt>
      <trkpt lat="36.08879749663174152374267578125" lon="-5.7783480919897556304931640625">
        <ele>41.59999847412109375</ele>
        <time>2021-04-04T10:26:19.000Z</time>
      </trkpt>
      <trkpt lat="36.0887848399579524993896484375" lon="-5.778417326509952545166015625">
        <ele>41</ele>
        <time>2021-04-04T10:26:28.000Z</time>
      </trkpt>
      <trkpt lat="36.088790707290172576904296875" lon="-5.7784708030521869659423828125">
        <ele>41.59999847412109375</ele>
        <time>2021-04-04T10:26:34.000Z</time>
      </trkpt>
      <trkpt lat="36.08879112638533115386962890625" lon="-5.778523273766040802001953125">
        <ele>41.200000762939453125</ele>
        <time>2021-04-04T10:26:39.000Z</time>
      </trkpt>
      <trkpt lat="36.08876866288483142852783203125" lon="-5.7787467353045940399169921875">
        <ele>41.799999237060546875</ele>
        <time>2021-04-04T10:27:04.000Z</time>
      </trkpt>
      <trkpt lat="36.08877159655094146728515625" lon="-5.77879711054265499114990234375">
        <ele>42</ele>
        <time>2021-04-04T10:27:09.000Z</time>
      </trkpt>
      <trkpt lat="36.08877989463508129119873046875" lon="-5.77890322543680667877197265625">
        <ele>42.200000762939453125</ele>
        <time>2021-04-04T10:27:20.000Z</time>
      </trkpt>
      <trkpt lat="36.08878643251955509185791015625" lon="-5.77912601642310619354248046875">
        <ele>42</ele>
        <time>2021-04-04T10:27:45.000Z</time>
      </trkpt>
      <trkpt lat="36.088794060051441192626953125" lon="-5.7793016172945499420166015625">
        <ele>42.200000762939453125</ele>
        <time>2021-04-04T10:28:06.000Z</time>
      </trkpt>
      <trkpt lat="36.0888036154210567474365234375" lon="-5.7794437743723392486572265625">
        <ele>42.59999847412109375</ele>
        <time>2021-04-04T10:28:25.000Z</time>
      </trkpt>
      <trkpt lat="36.0888042859733104705810546875" lon="-5.779455006122589111328125">
        <ele>42.59999847412109375</ele>
        <time>2021-04-04T10:28:26.000Z</time>
      </trkpt>
      <trkpt lat="36.088804118335247039794921875" lon="-5.77946615405380725860595703125">
        <ele>42.59999847412109375</ele>
        <time>2021-04-04T10:28:27.000Z</time>
      </trkpt>
      <trkpt lat="36.08880302868783473968505859375" lon="-5.7794776372611522674560546875">
        <ele>42.59999847412109375</ele>
        <time>2021-04-04T10:28:28.000Z</time>
      </trkpt>
      <trkpt lat="36.0888026095926761627197265625" lon="-5.7794900424778461456298828125">
        <ele>42.59999847412109375</ele>
        <time>2021-04-04T10:28:29.000Z</time>
      </trkpt>
      <trkpt lat="36.08880269341170787811279296875" lon="-5.77971727587282657623291015625">
        <ele>42.40000152587890625</ele>
        <time>2021-04-04T10:28:50.000Z</time>
      </trkpt>
      <trkpt lat="36.088796071708202362060546875" lon="-5.779812075197696685791015625">
        <ele>42.59999847412109375</ele>
        <time>2021-04-04T10:28:59.000Z</time>
      </trkpt>
      <trkpt lat="36.08880721963942050933837890625" lon="-5.77995230443775653839111328125">
        <ele>43</ele>
        <time>2021-04-04T10:29:13.000Z</time>
      </trkpt>
      <trkpt lat="36.08883119188249111175537109375" lon="-5.78018180094659328460693359375">
        <ele>42.59999847412109375</ele>
        <time>2021-04-04T10:29:38.000Z</time>
      </trkpt>
      <trkpt lat="36.0888394899666309356689453125" lon="-5.78031205572187900543212890625">
        <ele>43.200000762939453125</ele>
        <time>2021-04-04T10:29:51.000Z</time>
      </trkpt>
      <trkpt lat="36.08883253298699855804443359375" lon="-5.78037810511887073516845703125">
        <ele>43.200000762939453125</ele>
        <time>2021-04-04T10:30:00.000Z</time>
      </trkpt>
      <trkpt lat="36.08881107531487941741943359375" lon="-5.78044583089649677276611328125">
        <ele>43</ele>
        <time>2021-04-04T10:30:08.000Z</time>
      </trkpt>
      <trkpt lat="36.08881157822906970977783203125" lon="-5.78045748174190521240234375">
        <ele>42.799999237060546875</ele>
        <time>2021-04-04T10:30:09.000Z</time>
      </trkpt>
      <trkpt lat="36.0888116620481014251708984375" lon="-5.780469886958599090576171875">
        <ele>42.59999847412109375</ele>
        <time>2021-04-04T10:30:10.000Z</time>
      </trkpt>
      <trkpt lat="36.0888042859733104705810546875" lon="-5.78050735406577587127685546875">
        <ele>42</ele>
        <time>2021-04-04T10:30:14.000Z</time>
      </trkpt>
      <trkpt lat="36.0888012684881687164306640625" lon="-5.78054138459265232086181640625">
        <ele>41.799999237060546875</ele>
        <time>2021-04-04T10:30:18.000Z</time>
      </trkpt>
      <trkpt lat="36.08880118466913700103759765625" lon="-5.78054976649582386016845703125">
        <ele>41.59999847412109375</ele>
        <time>2021-04-04T10:30:19.000Z</time>
      </trkpt>
      <trkpt lat="36.08879934065043926239013671875" lon="-5.7805582322180271148681640625">
        <ele>41.59999847412109375</ele>
        <time>2021-04-04T10:30:20.000Z</time>
      </trkpt>
      <trkpt lat="36.088796742260456085205078125" lon="-5.780565105378627777099609375">
        <ele>41.59999847412109375</ele>
        <time>2021-04-04T10:30:21.000Z</time>
      </trkpt>
      <trkpt lat="36.0887955687940120697021484375" lon="-5.78059234656393527984619140625">
        <ele>41.799999237060546875</ele>
        <time>2021-04-04T10:30:24.000Z</time>
      </trkpt>
      <trkpt lat="36.08880286104977130889892578125" lon="-5.7806118763983249664306640625">
        <ele>42</ele>
        <time>2021-04-04T10:30:30.000Z</time>
      </trkpt>
      <trkpt lat="36.0887737758457660675048828125" lon="-5.7807506807148456573486328125">
        <ele>43</ele>
        <time>2021-04-04T10:30:49.000Z</time>
      </trkpt>
      <trkpt lat="36.08876480720937252044677734375" lon="-5.78081077896058559417724609375">
        <ele>44</ele>
        <time>2021-04-04T10:30:59.000Z</time>
      </trkpt>
      <trkpt lat="36.0887583531439304351806640625" lon="-5.78083927743136882781982421875">
        <ele>44</ele>
        <time>2021-04-04T10:31:04.000Z</time>
      </trkpt>
      <trkpt lat="36.08873798511922359466552734375" lon="-5.7808832824230194091796875">
        <ele>44</ele>
        <time>2021-04-04T10:31:11.000Z</time>
      </trkpt>
      <trkpt lat="36.0887348838150501251220703125" lon="-5.7809179835021495819091796875">
        <ele>44</ele>
        <time>2021-04-04T10:31:15.000Z</time>
      </trkpt>
      <trkpt lat="36.088731698691844940185546875" lon="-5.78093885444104671478271484375">
        <ele>44</ele>
        <time>2021-04-04T10:31:18.000Z</time>
      </trkpt>
      <trkpt lat="36.0887228138744831085205078125" lon="-5.780982859432697296142578125">
        <ele>43.799999237060546875</ele>
        <time>2021-04-04T10:31:23.000Z</time>
      </trkpt>
      <trkpt lat="36.08871669508516788482666015625" lon="-5.78100440092384815216064453125">
        <ele>43.799999237060546875</ele>
        <time>2021-04-04T10:31:27.000Z</time>
      </trkpt>
      <trkpt lat="36.0886406712234020233154296875" lon="-5.78112778253853321075439453125">
        <ele>43.59999847412109375</ele>
        <time>2021-04-04T10:31:48.000Z</time>
      </trkpt>
      <trkpt lat="36.08857990242540836334228515625" lon="-5.78116692602634429931640625">
        <ele>43</ele>
        <time>2021-04-04T10:31:58.000Z</time>
      </trkpt>
      <trkpt lat="36.088573448359966278076171875" lon="-5.78116868622601032257080078125">
        <ele>43</ele>
        <time>2021-04-04T10:31:59.000Z</time>
      </trkpt>
      <trkpt lat="36.0885659046471118927001953125" lon="-5.7811737991869449615478515625">
        <ele>42.799999237060546875</ele>
        <time>2021-04-04T10:32:01.000Z</time>
      </trkpt>
      <trkpt lat="36.088525839149951934814453125" lon="-5.78118343837559223175048828125">
        <ele>42.59999847412109375</ele>
        <time>2021-04-04T10:32:29.000Z</time>
      </trkpt>
      <trkpt lat="36.088523827493190765380859375" lon="-5.78118461184203624725341796875">
        <ele>42.59999847412109375</ele>
        <time>2021-04-04T10:32:30.000Z</time>
      </trkpt>
      <trkpt lat="36.08852139674127101898193359375" lon="-5.78118863515555858612060546875">
        <ele>42.59999847412109375</ele>
        <time>2021-04-04T10:32:31.000Z</time>
      </trkpt>
      <trkpt lat="36.0885176248848438262939453125" lon="-5.78119332902133464813232421875">
        <ele>42.799999237060546875</ele>
        <time>2021-04-04T10:32:32.000Z</time>
      </trkpt>
      <trkpt lat="36.08849356882274150848388671875" lon="-5.78123398125171661376953125">
        <ele>42.200000762939453125</ele>
        <time>2021-04-04T10:32:42.000Z</time>
      </trkpt>
      <trkpt lat="36.0884918086230754852294921875" lon="-5.7812492363154888153076171875">
        <ele>41.799999237060546875</ele>
        <time>2021-04-04T10:32:44.000Z</time>
      </trkpt>
      <trkpt lat="36.088487617671489715576171875" lon="-5.78127630986273288726806640625">
        <ele>41.40000152587890625</ele>
        <time>2021-04-04T10:32:50.000Z</time>
      </trkpt>
      <trkpt lat="36.088488288223743438720703125" lon="-5.7813394255936145782470703125">
        <ele>42.200000762939453125</ele>
        <time>2021-04-04T10:32:58.000Z</time>
      </trkpt>
      <trkpt lat="36.08847563154995441436767578125" lon="-5.7814145274460315704345703125">
        <ele>42.799999237060546875</ele>
        <time>2021-04-04T10:33:08.000Z</time>
      </trkpt>
      <trkpt lat="36.08843405731022357940673828125" lon="-5.7816369831562042236328125">
        <ele>42.799999237060546875</ele>
        <time>2021-04-04T10:33:34.000Z</time>
      </trkpt>
      <trkpt lat="36.08843388967216014862060546875" lon="-5.7817088998854160308837890625">
        <ele>42</ele>
        <time>2021-04-04T10:33:44.000Z</time>
      </trkpt>
      <trkpt lat="36.08843724243342876434326171875" lon="-5.781718790531158447265625">
        <ele>41.59999847412109375</ele>
        <time>2021-04-04T10:33:46.000Z</time>
      </trkpt>
      <trkpt lat="36.08842534013092517852783203125" lon="-5.781940408051013946533203125">
        <ele>40.799999237060546875</ele>
        <time>2021-04-04T10:34:27.000Z</time>
      </trkpt>
      <trkpt lat="36.08838359825313091278076171875" lon="-5.7821528054773807525634765625">
        <ele>41.40000152587890625</ele>
        <time>2021-04-04T10:35:02.000Z</time>
      </trkpt>
      <trkpt lat="36.08837773092091083526611328125" lon="-5.7823308371007442474365234375">
        <ele>42.200000762939453125</ele>
        <time>2021-04-04T10:35:39.000Z</time>
      </trkpt>
      <trkpt lat="36.08835895545780658721923828125" lon="-5.78238439746201038360595703125">
        <ele>42</ele>
        <time>2021-04-04T10:35:47.000Z</time>
      </trkpt>
      <trkpt lat="36.08834587968885898590087890625" lon="-5.7824699766933917999267578125">
        <ele>41</ele>
        <time>2021-04-04T10:35:58.000Z</time>
      </trkpt>
      <trkpt lat="36.08834437094628810882568359375" lon="-5.78253761865198612213134765625">
        <ele>41.200000762939453125</ele>
        <time>2021-04-04T10:36:07.000Z</time>
      </trkpt>
      <trkpt lat="36.08835107646882534027099609375" lon="-5.78261506743729114532470703125">
        <ele>41.59999847412109375</ele>
        <time>2021-04-04T10:36:17.000Z</time>
      </trkpt>
      <trkpt lat="36.08837454579770565032958984375" lon="-5.78279829584062099456787109375">
        <ele>42.799999237060546875</ele>
        <time>2021-04-04T10:36:45.000Z</time>
      </trkpt>
      <trkpt lat="36.0883848555386066436767578125" lon="-5.78284271992743015289306640625">
        <ele>43</ele>
        <time>2021-04-04T10:36:56.000Z</time>
      </trkpt>
      <trkpt lat="36.0884123481810092926025390625" lon="-5.78293425031006336212158203125">
        <ele>43.40000152587890625</ele>
        <time>2021-04-04T10:37:09.000Z</time>
      </trkpt>
      <trkpt lat="36.0884237475693225860595703125" lon="-5.78297146596014499664306640625">
        <ele>43.799999237060546875</ele>
        <time>2021-04-04T10:37:16.000Z</time>
      </trkpt>
      <trkpt lat="36.08844009228050708770751953125" lon="-5.78300130553543567657470703125">
        <ele>44</ele>
        <time>2021-04-04T10:37:21.000Z</time>
      </trkpt>
      <trkpt lat="36.088474877178668975830078125" lon="-5.7830647565424442291259765625">
        <ele>44.799999237060546875</ele>
        <time>2021-04-04T10:37:36.000Z</time>
      </trkpt>
      <trkpt lat="36.08847579918801784515380859375" lon="-5.78310054726898670196533203125">
        <ele>45.200000762939453125</ele>
        <time>2021-04-04T10:37:46.000Z</time>
      </trkpt>
      <trkpt lat="36.088485606014728546142578125" lon="-5.78320431523025035858154296875">
        <ele>46</ele>
        <time>2021-04-04T10:38:01.000Z</time>
      </trkpt>
      <trkpt lat="36.08852039091289043426513671875" lon="-5.78338989056646823883056640625">
        <ele>47</ele>
        <time>2021-04-04T10:38:31.000Z</time>
      </trkpt>
      <trkpt lat="36.0885256715118885040283203125" lon="-5.78341151587665081024169921875">
        <ele>47.40000152587890625</ele>
        <time>2021-04-04T10:38:34.000Z</time>
      </trkpt>
      <trkpt lat="36.08857202343642711639404296875" lon="-5.78354679979383945465087890625">
        <ele>48.40000152587890625</ele>
        <time>2021-04-04T10:38:58.000Z</time>
      </trkpt>
      <trkpt lat="36.0885994322597980499267578125" lon="-5.78357680700719356536865234375">
        <ele>49.40000152587890625</ele>
        <time>2021-04-04T10:39:06.000Z</time>
      </trkpt>
      <trkpt lat="36.08862482942640781402587890625" lon="-5.78365274704992771148681640625">
        <ele>50.59999847412109375</ele>
        <time>2021-04-04T10:39:19.000Z</time>
      </trkpt>
      <trkpt lat="36.0886151902377605438232421875" lon="-5.783708654344081878662109375">
        <ele>51.59999847412109375</ele>
        <time>2021-04-04T10:39:28.000Z</time>
      </trkpt>
      <trkpt lat="36.0886222310364246368408203125" lon="-5.78374042175710201263427734375">
        <ele>52.59999847412109375</ele>
        <time>2021-04-04T10:39:38.000Z</time>
      </trkpt>
      <trkpt lat="36.08861527405679225921630859375" lon="-5.78377746976912021636962890625">
        <ele>53.59999847412109375</ele>
        <time>2021-04-04T10:39:56.000Z</time>
      </trkpt>
      <trkpt lat="36.08860664069652557373046875" lon="-5.78378476202487945556640625">
        <ele>53.59999847412109375</ele>
        <time>2021-04-04T10:40:06.000Z</time>
      </trkpt>
      <trkpt lat="36.0886195488274097442626953125" lon="-5.78380328603088855743408203125">
        <ele>53.59999847412109375</ele>
        <time>2021-04-04T10:40:45.000Z</time>
      </trkpt>
      <trkpt lat="36.0886198841035366058349609375" lon="-5.78380596823990345001220703125">
        <ele>53.40000152587890625</ele>
        <time>2021-04-04T10:40:53.000Z</time>
      </trkpt>
      <trkpt lat="36.08861795626580715179443359375" lon="-5.78379959799349308013916015625">
        <ele>53.40000152587890625</ele>
        <time>2021-04-04T10:43:14.000Z</time>
      </trkpt>
      <trkpt lat="36.08861736953258514404296875" lon="-5.783801861107349395751953125">
        <ele>53.40000152587890625</ele>
        <time>2021-04-04T10:43:15.000Z</time>
      </trkpt>
      <trkpt lat="36.08861309476196765899658203125" lon="-5.78387537039816379547119140625">
        <ele>53.200000762939453125</ele>
        <time>2021-04-04T10:43:26.000Z</time>
      </trkpt>
      <trkpt lat="36.0886141844093799591064453125" lon="-5.78390680253505706787109375">
        <ele>52.799999237060546875</ele>
        <time>2021-04-04T10:43:30.000Z</time>
      </trkpt>
      <trkpt lat="36.08861443586647510528564453125" lon="-5.78393471427261829376220703125">
        <ele>52.799999237060546875</ele>
        <time>2021-04-04T10:43:33.000Z</time>
      </trkpt>
      <trkpt lat="36.08861359767615795135498046875" lon="-5.7839508913457393646240234375">
        <ele>52.59999847412109375</ele>
        <time>2021-04-04T10:43:35.000Z</time>
      </trkpt>
      <trkpt lat="36.0886138491332530975341796875" lon="-5.78395885415375232696533203125">
        <ele>52.59999847412109375</ele>
        <time>2021-04-04T10:43:36.000Z</time>
      </trkpt>
      <trkpt lat="36.08861762098968029022216796875" lon="-5.78399288468062877655029296875">
        <ele>52.799999237060546875</ele>
        <time>2021-04-04T10:43:40.000Z</time>
      </trkpt>
      <trkpt lat="36.0886180400848388671875" lon="-5.784001685678958892822265625">
        <ele>52.799999237060546875</ele>
        <time>2021-04-04T10:43:41.000Z</time>
      </trkpt>
      <trkpt lat="36.0886182077229022979736328125" lon="-5.78401048667728900909423828125">
        <ele>52.799999237060546875</ele>
        <time>2021-04-04T10:43:42.000Z</time>
      </trkpt>
      <trkpt lat="36.08861711807548999786376953125" lon="-5.7840380631387233734130859375">
        <ele>53</ele>
        <time>2021-04-04T10:43:45.000Z</time>
      </trkpt>
      <trkpt lat="36.08862030319869518280029296875" lon="-5.78407938592135906219482421875">
        <ele>53.40000152587890625</ele>
        <time>2021-04-04T10:43:50.000Z</time>
      </trkpt>
      <trkpt lat="36.0886274278163909912109375" lon="-5.78412028960883617401123046875">
        <ele>53.799999237060546875</ele>
        <time>2021-04-04T10:43:55.000Z</time>
      </trkpt>
      <trkpt lat="36.0886296071112155914306640625" lon="-5.78416504897177219390869140625">
        <ele>54.40000152587890625</ele>
        <time>2021-04-04T10:44:02.000Z</time>
      </trkpt>
      <trkpt lat="36.08863019384443759918212890625" lon="-5.78420293517410755157470703125">
        <ele>54.799999237060546875</ele>
        <time>2021-04-04T10:44:08.000Z</time>
      </trkpt>
      <trkpt lat="36.0886416770517826080322265625" lon="-5.78423394821584224700927734375">
        <ele>55.799999237060546875</ele>
        <time>2021-04-04T10:44:16.000Z</time>
      </trkpt>
      <trkpt lat="36.08864394016563892364501953125" lon="-5.78423445113003253936767578125">
        <ele>55.799999237060546875</ele>
        <time>2021-04-04T10:44:18.000Z</time>
      </trkpt>
      <trkpt lat="36.08865357935428619384765625" lon="-5.7842670567333698272705078125">
        <ele>55.799999237060546875</ele>
        <time>2021-04-04T10:44:24.000Z</time>
      </trkpt>
      <trkpt lat="36.08865953050553798675537109375" lon="-5.78428323380649089813232421875">
        <ele>55.59999847412109375</ele>
        <time>2021-04-04T10:44:26.000Z</time>
      </trkpt>
      <trkpt lat="36.088669002056121826171875" lon="-5.7843310944736003875732421875">
        <ele>54.799999237060546875</ele>
        <time>2021-04-04T10:44:31.000Z</time>
      </trkpt>
      <trkpt lat="36.08867361210286617279052734375" lon="-5.7843683101236820220947265625">
        <ele>53.799999237060546875</ele>
        <time>2021-04-04T10:44:35.000Z</time>
      </trkpt>
      <trkpt lat="36.0886745341122150421142578125" lon="-5.78440024517476558685302734375">
        <ele>53.40000152587890625</ele>
        <time>2021-04-04T10:44:40.000Z</time>
      </trkpt>
      <trkpt lat="36.08868350274860858917236328125" lon="-5.78443947248160839080810546875">
        <ele>53.40000152587890625</ele>
        <time>2021-04-04T10:44:46.000Z</time>
      </trkpt>
      <trkpt lat="36.0887020267546176910400390625" lon="-5.78460392542183399200439453125">
        <ele>54.799999237060546875</ele>
        <time>2021-04-04T10:45:06.000Z</time>
      </trkpt>
      <trkpt lat="36.08871518634259700775146484375" lon="-5.784691013395786285400390625">
        <ele>55.799999237060546875</ele>
        <time>2021-04-04T10:45:19.000Z</time>
      </trkpt>
      <trkpt lat="36.0887335427105426788330078125" lon="-5.78479327261447906494140625">
        <ele>56.799999237060546875</ele>
        <time>2021-04-04T10:45:34.000Z</time>
      </trkpt>
      <trkpt lat="36.088728010654449462890625" lon="-5.784854628145694732666015625">
        <ele>58</ele>
        <time>2021-04-04T10:45:44.000Z</time>
      </trkpt>
      <trkpt lat="36.0887425951659679412841796875" lon="-5.7849087752401828765869140625">
        <ele>58.799999237060546875</ele>
        <time>2021-04-04T10:45:54.000Z</time>
      </trkpt>
      <trkpt lat="36.0887442715466022491455078125" lon="-5.7849141396582126617431640625">
        <ele>58.799999237060546875</ele>
        <time>2021-04-04T10:45:55.000Z</time>
      </trkpt>
      <trkpt lat="36.08874636702239513397216796875" lon="-5.7849205099046230316162109375">
        <ele>58.799999237060546875</ele>
        <time>2021-04-04T10:45:56.000Z</time>
      </trkpt>
      <trkpt lat="36.08874821104109287261962890625" lon="-5.7849262095987796783447265625">
        <ele>59</ele>
        <time>2021-04-04T10:45:57.000Z</time>
      </trkpt>
      <trkpt lat="36.0887560062110424041748046875" lon="-5.78496367670595645904541015625">
        <ele>60.200000762939453125</ele>
        <time>2021-04-04T10:46:03.000Z</time>
      </trkpt>
      <trkpt lat="36.08876354992389678955078125" lon="-5.78500709496438503265380859375">
        <ele>60.799999237060546875</ele>
        <time>2021-04-04T10:46:09.000Z</time>
      </trkpt>
      <trkpt lat="36.0887573473155498504638671875" lon="-5.7850412093102931976318359375">
        <ele>61.200000762939453125</ele>
        <time>2021-04-04T10:46:15.000Z</time>
      </trkpt>
      <trkpt lat="36.0887539945542812347412109375" lon="-5.785118155181407928466796875">
        <ele>62.200000762939453125</ele>
        <time>2021-04-04T10:46:29.000Z</time>
      </trkpt>
      <trkpt lat="36.08877469785511493682861328125" lon="-5.785178840160369873046875">
        <ele>62.40000152587890625</ele>
        <time>2021-04-04T10:46:39.000Z</time>
      </trkpt>
      <trkpt lat="36.0888200439512729644775390625" lon="-5.78522284515202045440673828125">
        <ele>62.59999847412109375</ele>
        <time>2021-04-04T10:46:49.000Z</time>
      </trkpt>
      <trkpt lat="36.088828928768634796142578125" lon="-5.78520926646888256072998046875">
        <ele>63.200000762939453125</ele>
        <time>2021-04-04T10:46:59.000Z</time>
      </trkpt>
      <trkpt lat="36.0888312757015228271484375" lon="-5.7852078415453433990478515625">
        <ele>63.59999847412109375</ele>
        <time>2021-04-04T10:47:08.000Z</time>
      </trkpt>
      <trkpt lat="36.08884946443140506744384765625" lon="-5.78522049821913242340087890625">
        <ele>63.59999847412109375</ele>
        <time>2021-04-04T10:47:45.000Z</time>
      </trkpt>
      <trkpt lat="36.0888508893549442291259765625" lon="-5.78522737137973308563232421875">
        <ele>63.59999847412109375</ele>
        <time>2021-04-04T10:47:46.000Z</time>
      </trkpt>
      <trkpt lat="36.088906042277812957763671875" lon="-5.78543297946453094482421875">
        <ele>63.200000762939453125</ele>
        <time>2021-04-04T10:48:16.000Z</time>
      </trkpt>
      <trkpt lat="36.08890696428716182708740234375" lon="-5.78544245101511478424072265625">
        <ele>63.200000762939453125</ele>
        <time>2021-04-04T10:48:17.000Z</time>
      </trkpt>
      <trkpt lat="36.08891266398131847381591796875" lon="-5.78547899611294269561767578125">
        <ele>63.40000152587890625</ele>
        <time>2021-04-04T10:48:22.000Z</time>
      </trkpt>
      <trkpt lat="36.08891375362873077392578125" lon="-5.7855099253356456756591796875">
        <ele>63.59999847412109375</ele>
        <time>2021-04-04T10:48:26.000Z</time>
      </trkpt>
      <trkpt lat="36.088922135531902313232421875" lon="-5.78552526421844959259033203125">
        <ele>63.59999847412109375</ele>
        <time>2021-04-04T10:48:30.000Z</time>
      </trkpt>
      <trkpt lat="36.08892942778766155242919921875" lon="-5.78553549014031887054443359375">
        <ele>63.59999847412109375</ele>
        <time>2021-04-04T10:48:32.000Z</time>
      </trkpt>
      <trkpt lat="36.08893462456762790679931640625" lon="-5.7855471409857273101806640625">
        <ele>63.59999847412109375</ele>
        <time>2021-04-04T10:48:34.000Z</time>
      </trkpt>
      <trkpt lat="36.08895205892622470855712890625" lon="-5.78555610962212085723876953125">
        <ele>63.799999237060546875</ele>
        <time>2021-04-04T10:48:38.000Z</time>
      </trkpt>
      <trkpt lat="36.08896044082939624786376953125" lon="-5.7855977676808834075927734375">
        <ele>64.1999969482421875</ele>
        <time>2021-04-04T10:48:43.000Z</time>
      </trkpt>
      <trkpt lat="36.0889719240367412567138671875" lon="-5.78564085066318511962890625">
        <ele>64.40000152587890625</ele>
        <time>2021-04-04T10:48:49.000Z</time>
      </trkpt>
      <trkpt lat="36.0889565013349056243896484375" lon="-5.78586489893496036529541015625">
        <ele>64</ele>
        <time>2021-04-04T10:49:17.000Z</time>
      </trkpt>
      <trkpt lat="36.0889316909015178680419921875" lon="-5.786042176187038421630859375">
        <ele>64.40000152587890625</ele>
        <time>2021-04-04T10:49:43.000Z</time>
      </trkpt>
      <trkpt lat="36.08892657794058322906494140625" lon="-5.78605801798403263092041015625">
        <ele>63.799999237060546875</ele>
        <time>2021-04-04T10:49:53.000Z</time>
      </trkpt>
      <trkpt lat="36.08899480663239955902099609375" lon="-5.78626739792525768280029296875">
        <ele>64.8000030517578125</ele>
        <time>2021-04-04T10:50:25.000Z</time>
      </trkpt>
      <trkpt lat="36.08899690210819244384765625" lon="-5.78628449700772762298583984375">
        <ele>65</ele>
        <time>2021-04-04T10:50:27.000Z</time>
      </trkpt>
      <trkpt lat="36.0889990814030170440673828125" lon="-5.78630008734762668609619140625">
        <ele>65.1999969482421875</ele>
        <time>2021-04-04T10:50:29.000Z</time>
      </trkpt>
      <trkpt lat="36.08899916522204875946044921875" lon="-5.78630528412759304046630859375">
        <ele>65.1999969482421875</ele>
        <time>2021-04-04T10:50:30.000Z</time>
      </trkpt>
      <trkpt lat="36.088996231555938720703125" lon="-5.78632523305714130401611328125">
        <ele>65.1999969482421875</ele>
        <time>2021-04-04T10:50:33.000Z</time>
      </trkpt>
      <trkpt lat="36.0889933817088603973388671875" lon="-5.7863407395780086517333984375">
        <ele>65.1999969482421875</ele>
        <time>2021-04-04T10:50:35.000Z</time>
      </trkpt>
      <trkpt lat="36.0889920406043529510498046875" lon="-5.78634887002408504486083984375">
        <ele>65.1999969482421875</ele>
        <time>2021-04-04T10:50:36.000Z</time>
      </trkpt>
      <trkpt lat="36.0889880172908306121826171875" lon="-5.7863635383546352386474609375">
        <ele>65.1999969482421875</ele>
        <time>2021-04-04T10:50:38.000Z</time>
      </trkpt>
      <trkpt lat="36.088981144130229949951171875" lon="-5.7863766141235828399658203125">
        <ele>65.40000152587890625</ele>
        <time>2021-04-04T10:50:40.000Z</time>
      </trkpt>
      <trkpt lat="36.08897569589316844940185546875" lon="-5.78639128245413303375244140625">
        <ele>65.40000152587890625</ele>
        <time>2021-04-04T10:50:42.000Z</time>
      </trkpt>
      <trkpt lat="36.08890998177230358123779296875" lon="-5.78652706928551197052001953125">
        <ele>65.8000030517578125</ele>
        <time>2021-04-04T10:51:08.000Z</time>
      </trkpt>
      <trkpt lat="36.08891769312322139739990234375" lon="-5.7866126485168933868408203125">
        <ele>65.40000152587890625</ele>
        <time>2021-04-04T10:51:25.000Z</time>
      </trkpt>
      <trkpt lat="36.08892775140702724456787109375" lon="-5.7866371236741542816162109375">
        <ele>66.59999847412109375</ele>
        <time>2021-04-04T10:52:20.000Z</time>
      </trkpt>
      <trkpt lat="36.08892506919801235198974609375" lon="-5.78663854859769344329833984375">
        <ele>66.59999847412109375</ele>
        <time>2021-04-04T10:52:21.000Z</time>
      </trkpt>
      <trkpt lat="36.08889170922338962554931640625" lon="-5.78671113587915897369384765625">
        <ele>66.59999847412109375</ele>
        <time>2021-04-04T10:52:35.000Z</time>
      </trkpt>
      <trkpt lat="36.08888751827180385589599609375" lon="-5.7867157459259033203125">
        <ele>66.59999847412109375</ele>
        <time>2021-04-04T10:52:36.000Z</time>
      </trkpt>
      <trkpt lat="36.0888844169676303863525390625" lon="-5.78672069124877452850341796875">
        <ele>66.8000030517578125</ele>
        <time>2021-04-04T10:52:37.000Z</time>
      </trkpt>
      <trkpt lat="36.08888315968215465545654296875" lon="-5.78672303818166255950927734375">
        <ele>66.8000030517578125</ele>
        <time>2021-04-04T10:52:38.000Z</time>
      </trkpt>
      <trkpt lat="36.08888349495828151702880859375" lon="-5.7867283187806606292724609375">
        <ele>66.8000030517578125</ele>
        <time>2021-04-04T10:52:39.000Z</time>
      </trkpt>
      <trkpt lat="36.08888181857764720916748046875" lon="-5.786735527217388153076171875">
        <ele>67.1999969482421875</ele>
        <time>2021-04-04T10:52:41.000Z</time>
      </trkpt>
      <trkpt lat="36.0888777114450931549072265625" lon="-5.786743573844432830810546875">
        <ele>67.59999847412109375</ele>
        <time>2021-04-04T10:52:45.000Z</time>
      </trkpt>
      <trkpt lat="36.08887108974158763885498046875" lon="-5.786752291023731231689453125">
        <ele>68</ele>
        <time>2021-04-04T10:52:48.000Z</time>
      </trkpt>
      <trkpt lat="36.08886421658098697662353515625" lon="-5.7868198491632938385009765625">
        <ele>68.1999969482421875</ele>
        <time>2021-04-04T10:53:16.000Z</time>
      </trkpt>
      <trkpt lat="36.08886119909584522247314453125" lon="-5.7868185080587863922119140625">
        <ele>68.1999969482421875</ele>
        <time>2021-04-04T10:53:17.000Z</time>
      </trkpt>
      <trkpt lat="36.08885885216295719146728515625" lon="-5.7868315838277339935302734375">
        <ele>68.1999969482421875</ele>
        <time>2021-04-04T10:53:20.000Z</time>
      </trkpt>
      <trkpt lat="36.0888596065342426300048828125" lon="-5.7868382893502712249755859375">
        <ele>68.40000152587890625</ele>
        <time>2021-04-04T10:53:21.000Z</time>
      </trkpt>
      <trkpt lat="36.08886036090552806854248046875" lon="-5.78684507869184017181396484375">
        <ele>68.40000152587890625</ele>
        <time>2021-04-04T10:53:22.000Z</time>
      </trkpt>
      <trkpt lat="36.08885348774492740631103515625" lon="-5.78685346059501171112060546875">
        <ele>68.8000030517578125</ele>
        <time>2021-04-04T10:53:24.000Z</time>
      </trkpt>
      <trkpt lat="36.08885114081203937530517578125" lon="-5.78686050139367580413818359375">
        <ele>69</ele>
        <time>2021-04-04T10:53:25.000Z</time>
      </trkpt>
      <trkpt lat="36.0888492129743099212646484375" lon="-5.786868296563625335693359375">
        <ele>69</ele>
        <time>2021-04-04T10:53:26.000Z</time>
      </trkpt>
      <trkpt lat="36.08884669840335845947265625" lon="-5.78688816167414188385009765625">
        <ele>69.8000030517578125</ele>
        <time>2021-04-04T10:53:29.000Z</time>
      </trkpt>
      <trkpt lat="36.0888661444187164306640625" lon="-5.78696058131754398345947265625">
        <ele>71</ele>
        <time>2021-04-04T10:53:41.000Z</time>
      </trkpt>
      <trkpt lat="36.08888818882405757904052734375" lon="-5.78700282610952854156494140625">
        <ele>71.40000152587890625</ele>
        <time>2021-04-04T10:53:49.000Z</time>
      </trkpt>
      <trkpt lat="36.0888974927365779876708984375" lon="-5.78700282610952854156494140625">
        <ele>72</ele>
        <time>2021-04-04T10:53:51.000Z</time>
      </trkpt>
      <trkpt lat="36.08890126459300518035888671875" lon="-5.787017829716205596923828125">
        <ele>72.8000030517578125</ele>
        <time>2021-04-04T10:53:55.000Z</time>
      </trkpt>
      <trkpt lat="36.08890444971621036529541015625" lon="-5.78702495433390140533447265625">
        <ele>73</ele>
        <time>2021-04-04T10:53:57.000Z</time>
      </trkpt>
      <trkpt lat="36.08890176750719547271728515625" lon="-5.78702931292355060577392578125">
        <ele>73.40000152587890625</ele>
        <time>2021-04-04T10:54:06.000Z</time>
      </trkpt>
      <trkpt lat="36.08887041918933391571044921875" lon="-5.78717063181102275848388671875">
        <ele>74</ele>
        <time>2021-04-04T10:54:28.000Z</time>
      </trkpt>
      <trkpt lat="36.0888713411986827850341796875" lon="-5.78717649914324283599853515625">
        <ele>75.1999969482421875</ele>
        <time>2021-04-04T10:54:41.000Z</time>
      </trkpt>
      <trkpt lat="36.08887008391320705413818359375" lon="-5.78718353994190692901611328125">
        <ele>75.40000152587890625</ele>
        <time>2021-04-04T10:55:21.000Z</time>
      </trkpt>
      <trkpt lat="36.08887276612222194671630859375" lon="-5.7871839590370655059814453125">
        <ele>75.59999847412109375</ele>
        <time>2021-04-04T10:55:30.000Z</time>
      </trkpt>
      <trkpt lat="36.088871173560619354248046875" lon="-5.78718069009482860565185546875">
        <ele>75.59999847412109375</ele>
        <time>2021-04-04T10:55:34.000Z</time>
      </trkpt>
      <trkpt lat="36.08890478499233722686767578125" lon="-5.78734246082603931427001953125">
        <ele>75.8000030517578125</ele>
        <time>2021-04-04T10:58:41.000Z</time>
      </trkpt>
      <trkpt lat="36.08890478499233722686767578125" lon="-5.78735746443271636962890625">
        <ele>76.1999969482421875</ele>
        <time>2021-04-04T10:58:44.000Z</time>
      </trkpt>
      <trkpt lat="36.08890235424041748046875" lon="-5.7874474860727787017822265625">
        <ele>77.1999969482421875</ele>
        <time>2021-04-04T10:58:56.000Z</time>
      </trkpt>
      <trkpt lat="36.08890193514525890350341796875" lon="-5.78748277388513088226318359375">
        <ele>77.59999847412109375</ele>
        <time>2021-04-04T10:59:02.000Z</time>
      </trkpt>
      <trkpt lat="36.088899672031402587890625" lon="-5.787520073354244232177734375">
        <ele>78.40000152587890625</ele>
        <time>2021-04-04T10:59:08.000Z</time>
      </trkpt>
      <trkpt lat="36.088885255157947540283203125" lon="-5.7875936664640903472900390625">
        <ele>79.40000152587890625</ele>
        <time>2021-04-04T10:59:24.000Z</time>
      </trkpt>
      <trkpt lat="36.08888835646212100982666015625" lon="-5.78759928233921527862548828125">
        <ele>79.8000030517578125</ele>
        <time>2021-04-04T10:59:33.000Z</time>
      </trkpt>
      <trkpt lat="36.08888098038733005523681640625" lon="-5.78757883049547672271728515625">
        <ele>80.8000030517578125</ele>
        <time>2021-04-04T11:00:42.000Z</time>
      </trkpt>
      <trkpt lat="36.08888131566345691680908203125" lon="-5.78758251853287220001220703125">
        <ele>80.8000030517578125</ele>
        <time>2021-04-04T11:00:43.000Z</time>
      </trkpt>
      <trkpt lat="36.088878549635410308837890625" lon="-5.787591822445392608642578125">
        <ele>80.8000030517578125</ele>
        <time>2021-04-04T11:00:46.000Z</time>
      </trkpt>
      <trkpt lat="36.08888181857764720916748046875" lon="-5.78759157098829746246337890625">
        <ele>80.59999847412109375</ele>
        <time>2021-04-04T11:00:47.000Z</time>
      </trkpt>
      <trkpt lat="36.08888693153858184814453125" lon="-5.78759006224572658538818359375">
        <ele>80.59999847412109375</ele>
        <time>2021-04-04T11:00:48.000Z</time>
      </trkpt>
      <trkpt lat="36.0888907872140407562255859375" lon="-5.78758788295090198516845703125">
        <ele>80.59999847412109375</ele>
        <time>2021-04-04T11:00:50.000Z</time>
      </trkpt>
      <trkpt lat="36.088892631232738494873046875" lon="-5.78761369921267032623291015625">
        <ele>81.40000152587890625</ele>
        <time>2021-04-04T11:01:25.000Z</time>
      </trkpt>
      <trkpt lat="36.08885801397264003753662109375" lon="-5.78772333450615406036376953125">
        <ele>81.59999847412109375</ele>
        <time>2021-04-04T11:01:42.000Z</time>
      </trkpt>
      <trkpt lat="36.0888555832207202911376953125" lon="-5.7877282798290252685546875">
        <ele>81.8000030517578125</ele>
        <time>2021-04-04T11:01:44.000Z</time>
      </trkpt>
      <trkpt lat="36.08884393237531185150146484375" lon="-5.78777966089546680450439453125">
        <ele>82.1999969482421875</ele>
        <time>2021-04-04T11:01:52.000Z</time>
      </trkpt>
      <trkpt lat="36.08884158544242382049560546875" lon="-5.7877948321402072906494140625">
        <ele>82.40000152587890625</ele>
        <time>2021-04-04T11:01:54.000Z</time>
      </trkpt>
      <trkpt lat="36.08883990906178951263427734375" lon="-5.78780061565339565277099609375">
        <ele>82.40000152587890625</ele>
        <time>2021-04-04T11:01:55.000Z</time>
      </trkpt>
      <trkpt lat="36.08882783912122249603271484375" lon="-5.78783732838928699493408203125">
        <ele>83</ele>
        <time>2021-04-04T11:02:00.000Z</time>
      </trkpt>
      <trkpt lat="36.0888200439512729644775390625" lon="-5.78786180354654788970947265625">
        <ele>83.40000152587890625</ele>
        <time>2021-04-04T11:02:03.000Z</time>
      </trkpt>
      <trkpt lat="36.08882297761738300323486328125" lon="-5.78787378966808319091796875">
        <ele>83.59999847412109375</ele>
        <time>2021-04-04T11:02:05.000Z</time>
      </trkpt>
      <trkpt lat="36.08882951550185680389404296875" lon="-5.7879098318517208099365234375">
        <ele>84</ele>
        <time>2021-04-04T11:02:11.000Z</time>
      </trkpt>
      <trkpt lat="36.08880252577364444732666015625" lon="-5.788099430501461029052734375">
        <ele>85</ele>
        <time>2021-04-04T11:02:32.000Z</time>
      </trkpt>
      <trkpt lat="36.08871602453291416168212890625" lon="-5.78828911297023296356201171875">
        <ele>85</ele>
        <time>2021-04-04T11:03:06.000Z</time>
      </trkpt>
      <trkpt lat="36.0886886157095432281494140625" lon="-5.7883550785481929779052734375">
        <ele>86</ele>
        <time>2021-04-04T11:03:17.000Z</time>
      </trkpt>
      <trkpt lat="36.08868501149117946624755859375" lon="-5.78837377019226551055908203125">
        <ele>86</ele>
        <time>2021-04-04T11:03:19.000Z</time>
      </trkpt>
      <trkpt lat="36.08866296708583831787109375" lon="-5.78857426531612873077392578125">
        <ele>87.1999969482421875</ele>
        <time>2021-04-04T11:03:45.000Z</time>
      </trkpt>
      <trkpt lat="36.08866355381906032562255859375" lon="-5.78865556977689266204833984375">
        <ele>88.1999969482421875</ele>
        <time>2021-04-04T11:03:55.000Z</time>
      </trkpt>
      <trkpt lat="36.08866372145712375640869140625" lon="-5.78868071548640727996826171875">
        <ele>88.8000030517578125</ele>
        <time>2021-04-04T11:03:59.000Z</time>
      </trkpt>
      <trkpt lat="36.08866355381906032562255859375" lon="-5.7886963896453380584716796875">
        <ele>89</ele>
        <time>2021-04-04T11:04:02.000Z</time>
      </trkpt>
      <trkpt lat="36.088663637638092041015625" lon="-5.78870133496820926666259765625">
        <ele>89.1999969482421875</ele>
        <time>2021-04-04T11:04:03.000Z</time>
      </trkpt>
      <trkpt lat="36.088663637638092041015625" lon="-5.78873150981962680816650390625">
        <ele>89.8000030517578125</ele>
        <time>2021-04-04T11:04:07.000Z</time>
      </trkpt>
      <trkpt lat="36.088665314018726348876953125" lon="-5.788745842874050140380859375">
        <ele>90.1999969482421875</ele>
        <time>2021-04-04T11:04:09.000Z</time>
      </trkpt>
      <trkpt lat="36.08866707421839237213134765625" lon="-5.78875548206269741058349609375">
        <ele>90.1999969482421875</ele>
        <time>2021-04-04T11:04:11.000Z</time>
      </trkpt>
      <trkpt lat="36.08867830596864223480224609375" lon="-5.78884617425501346588134765625">
        <ele>91.40000152587890625</ele>
        <time>2021-04-04T11:04:31.000Z</time>
      </trkpt>
      <trkpt lat="36.0886912979185581207275390625" lon="-5.78885413706302642822265625">
        <ele>92.1999969482421875</ele>
        <time>2021-04-04T11:04:38.000Z</time>
      </trkpt>
      <trkpt lat="36.088691465556621551513671875" lon="-5.78887752257287502288818359375">
        <ele>92.8000030517578125</ele>
        <time>2021-04-04T11:06:27.000Z</time>
      </trkpt>
      <trkpt lat="36.0886918008327484130859375" lon="-5.78888221643865108489990234375">
        <ele>92.8000030517578125</ele>
        <time>2021-04-04T11:06:28.000Z</time>
      </trkpt>
      <trkpt lat="36.088696829974651336669921875" lon="-5.788921527564525604248046875">
        <ele>92</ele>
        <time>2021-04-04T11:06:41.000Z</time>
      </trkpt>
      <trkpt lat="36.088695824146270751953125" lon="-5.7889324240386486053466796875">
        <ele>91.8000030517578125</ele>
        <time>2021-04-04T11:06:43.000Z</time>
      </trkpt>
      <trkpt lat="36.088696159422397613525390625" lon="-5.7889398001134395599365234375">
        <ele>91.8000030517578125</ele>
        <time>2021-04-04T11:06:44.000Z</time>
      </trkpt>
      <trkpt lat="36.08869381248950958251953125" lon="-5.78896804712712764739990234375">
        <ele>91.40000152587890625</ele>
        <time>2021-04-04T11:06:47.000Z</time>
      </trkpt>
      <trkpt lat="36.08869356103241443634033203125" lon="-5.7889840565621852874755859375">
        <ele>91.40000152587890625</ele>
        <time>2021-04-04T11:06:49.000Z</time>
      </trkpt>
      <trkpt lat="36.08869381248950958251953125" lon="-5.7889931090176105499267578125">
        <ele>91.1999969482421875</ele>
        <time>2021-04-04T11:06:50.000Z</time>
      </trkpt>
      <trkpt lat="36.088692806661128997802734375" lon="-5.78900157473981380462646484375">
        <ele>91.1999969482421875</ele>
        <time>2021-04-04T11:06:51.000Z</time>
      </trkpt>
      <trkpt lat="36.08869171701371669769287109375" lon="-5.78901984728872776031494140625">
        <ele>91.1999969482421875</ele>
        <time>2021-04-04T11:06:53.000Z</time>
      </trkpt>
      <trkpt lat="36.08869104646146297454833984375" lon="-5.78903778456151485443115234375">
        <ele>91</ele>
        <time>2021-04-04T11:06:55.000Z</time>
      </trkpt>
      <trkpt lat="36.08868886716663837432861328125" lon="-5.7890581525862216949462890625">
        <ele>90.59999847412109375</ele>
        <time>2021-04-04T11:06:57.000Z</time>
      </trkpt>
      <trkpt lat="36.0886849276721477508544921875" lon="-5.78911162912845611572265625">
        <ele>90.1999969482421875</ele>
        <time>2021-04-04T11:07:02.000Z</time>
      </trkpt>
      <trkpt lat="36.08868216164410114288330078125" lon="-5.78913182951509952545166015625">
        <ele>90.1999969482421875</ele>
        <time>2021-04-04T11:07:04.000Z</time>
      </trkpt>
      <trkpt lat="36.088675372302532196044921875" lon="-5.789157561957836151123046875">
        <ele>90.1999969482421875</ele>
        <time>2021-04-04T11:07:07.000Z</time>
      </trkpt>
      <trkpt lat="36.08867369592189788818359375" lon="-5.7891879044473171234130859375">
        <ele>90.1999969482421875</ele>
        <time>2021-04-04T11:07:12.000Z</time>
      </trkpt>
      <trkpt lat="36.0886604525148868560791015625" lon="-5.7892640121281147003173828125">
        <ele>90</ele>
        <time>2021-04-04T11:07:21.000Z</time>
      </trkpt>
      <trkpt lat="36.088636480271816253662109375" lon="-5.7892982102930545806884765625">
        <ele>90.1999969482421875</ele>
        <time>2021-04-04T11:07:26.000Z</time>
      </trkpt>
      <trkpt lat="36.08846121467649936676025390625" lon="-5.78934120945632457733154296875">
        <ele>90.59999847412109375</ele>
        <time>2021-04-04T11:07:58.000Z</time>
      </trkpt>
      <trkpt lat="36.08841042034327983856201171875" lon="-5.7894363440573215484619140625">
        <ele>89.59999847412109375</ele>
        <time>2021-04-04T11:08:08.000Z</time>
      </trkpt>
      <trkpt lat="36.0883972607553005218505859375" lon="-5.78965972177684307098388671875">
        <ele>90</ele>
        <time>2021-04-04T11:08:39.000Z</time>
      </trkpt>
      <trkpt lat="36.0883848555386066436767578125" lon="-5.7898802496492862701416015625">
        <ele>90.40000152587890625</ele>
        <time>2021-04-04T11:09:06.000Z</time>
      </trkpt>
      <trkpt lat="36.08838711865246295928955078125" lon="-5.7900307886302471160888671875">
        <ele>89</ele>
        <time>2021-04-04T11:09:23.000Z</time>
      </trkpt>
      <trkpt lat="36.0883831791579723358154296875" lon="-5.7900757156312465667724609375">
        <ele>89.1999969482421875</ele>
        <time>2021-04-04T11:09:27.000Z</time>
      </trkpt>
      <trkpt lat="36.0883831791579723358154296875" lon="-5.790099687874317169189453125">
        <ele>89.40000152587890625</ele>
        <time>2021-04-04T11:09:29.000Z</time>
      </trkpt>
      <trkpt lat="36.08842416666448116302490234375" lon="-5.79026321880519390106201171875">
        <ele>90.40000152587890625</ele>
        <time>2021-04-04T11:10:10.000Z</time>
      </trkpt>
      <trkpt lat="36.08842969872057437896728515625" lon="-5.79025936312973499298095703125">
        <ele>90.8000030517578125</ele>
        <time>2021-04-04T11:10:14.000Z</time>
      </trkpt>
      <trkpt lat="36.08844797126948833465576171875" lon="-5.79027411527931690216064453125">
        <ele>90.40000152587890625</ele>
        <time>2021-04-04T11:10:25.000Z</time>
      </trkpt>
      <trkpt lat="36.08844193629920482635498046875" lon="-5.79027260653674602508544921875">
        <ele>90.40000152587890625</ele>
        <time>2021-04-04T11:10:33.000Z</time>
      </trkpt>
      <trkpt lat="36.0884450376033782958984375" lon="-5.7902795635163784027099609375">
        <ele>90.40000152587890625</ele>
        <time>2021-04-04T11:10:37.000Z</time>
      </trkpt>
      <trkpt lat="36.08845266513526439666748046875" lon="-5.790286101400852203369140625">
        <ele>90.40000152587890625</ele>
        <time>2021-04-04T11:10:39.000Z</time>
      </trkpt>
      <trkpt lat="36.088475883007049560546875" lon="-5.79031996428966522216796875">
        <ele>90.40000152587890625</ele>
        <time>2021-04-04T11:10:44.000Z</time>
      </trkpt>
      <trkpt lat="36.08850739896297454833984375" lon="-5.79033966176211833953857421875">
        <ele>90.59999847412109375</ele>
        <time>2021-04-04T11:10:48.000Z</time>
      </trkpt>
      <trkpt lat="36.08851318247616291046142578125" lon="-5.79034351743757724761962890625">
        <ele>91</ele>
        <time>2021-04-04T11:10:49.000Z</time>
      </trkpt>
      <trkpt lat="36.08855475671589374542236328125" lon="-5.79038224183022975921630859375">
        <ele>90.1999969482421875</ele>
        <time>2021-04-04T11:10:57.000Z</time>
      </trkpt>
      <trkpt lat="36.08855928294360637664794921875" lon="-5.79038391821086406707763671875">
        <ele>89.8000030517578125</ele>
        <time>2021-04-04T11:10:58.000Z</time>
      </trkpt>
      <trkpt lat="36.08856481499969959259033203125" lon="-5.79038727097213268280029296875">
        <ele>89.8000030517578125</ele>
        <time>2021-04-04T11:10:59.000Z</time>
      </trkpt>
      <trkpt lat="36.08857403509318828582763671875" lon="-5.79039783217012882232666015625">
        <ele>90.8000030517578125</ele>
        <time>2021-04-04T11:11:02.000Z</time>
      </trkpt>
      <trkpt lat="36.08857587911188602447509765625" lon="-5.7904026098549365997314453125">
        <ele>90.8000030517578125</ele>
        <time>2021-04-04T11:11:04.000Z</time>
      </trkpt>
      <trkpt lat="36.08857671730220317840576171875" lon="-5.7904042862355709075927734375">
        <ele>90.8000030517578125</ele>
        <time>2021-04-04T11:11:06.000Z</time>
      </trkpt>
      <trkpt lat="36.08858074061572551727294921875" lon="-5.7903957366943359375">
        <ele>91</ele>
        <time>2021-04-04T11:11:12.000Z</time>
      </trkpt>
      <trkpt lat="36.08858761377632617950439453125" lon="-5.79038836061954498291015625">
        <ele>90.8000030517578125</ele>
        <time>2021-04-04T11:11:26.000Z</time>
      </trkpt>
      <trkpt lat="36.08858325518667697906494140625" lon="-5.7903989218175411224365234375">
        <ele>90.59999847412109375</ele>
        <time>2021-04-04T11:11:31.000Z</time>
      </trkpt>
      <trkpt lat="36.0885783098638057708740234375" lon="-5.79040118493139743804931640625">
        <ele>90.59999847412109375</ele>
        <time>2021-04-04T11:11:36.000Z</time>
      </trkpt>
      <trkpt lat="36.08858107589185237884521484375" lon="-5.7903985865414142608642578125">
        <ele>90.59999847412109375</ele>
        <time>2021-04-04T11:11:44.000Z</time>
      </trkpt>
      <trkpt lat="36.0885308682918548583984375" lon="-5.790341757237911224365234375">
        <ele>90.59999847412109375</ele>
        <time>2021-04-04T11:11:53.000Z</time>
      </trkpt>
      <trkpt lat="36.08845367096364498138427734375" lon="-5.7902520708739757537841796875">
        <ele>90.8000030517578125</ele>
        <time>2021-04-04T11:12:01.000Z</time>
      </trkpt>
      <trkpt lat="36.0884462110698223114013671875" lon="-5.79024829901754856109619140625">
        <ele>90.8000030517578125</ele>
        <time>2021-04-04T11:12:02.000Z</time>
      </trkpt>
      <trkpt lat="36.08844277448952198028564453125" lon="-5.7902480475604534149169921875">
        <ele>90.8000030517578125</ele>
        <time>2021-04-04T11:12:03.000Z</time>
      </trkpt>
      <trkpt lat="36.08844193629920482635498046875" lon="-5.790245197713375091552734375">
        <ele>90.8000030517578125</ele>
        <time>2021-04-04T11:12:06.000Z</time>
      </trkpt>
      <trkpt lat="36.08845618553459644317626953125" lon="-5.7902514003217220306396484375">
        <ele>90.8000030517578125</ele>
        <time>2021-04-04T11:12:08.000Z</time>
      </trkpt>
      <trkpt lat="36.088470183312892913818359375" lon="-5.79026137478649616241455078125">
        <ele>90.8000030517578125</ele>
        <time>2021-04-04T11:12:10.000Z</time>
      </trkpt>
      <trkpt lat="36.08848753385245800018310546875" lon="-5.79027344472706317901611328125">
        <ele>90.8000030517578125</ele>
        <time>2021-04-04T11:12:12.000Z</time>
      </trkpt>
      <trkpt lat="36.0885067284107208251953125" lon="-5.79028752632439136505126953125">
        <ele>90.59999847412109375</ele>
        <time>2021-04-04T11:12:14.000Z</time>
      </trkpt>
      <trkpt lat="36.08854084275662899017333984375" lon="-5.79033681191504001617431640625">
        <ele>90.40000152587890625</ele>
        <time>2021-04-04T11:12:20.000Z</time>
      </trkpt>
      <trkpt lat="36.08855777420103549957275390625" lon="-5.79036430455744266510009765625">
        <ele>90.40000152587890625</ele>
        <time>2021-04-04T11:12:23.000Z</time>
      </trkpt>
      <trkpt lat="36.0885662399232387542724609375" lon="-5.7904042862355709075927734375">
        <ele>90.40000152587890625</ele>
        <time>2021-04-04T11:12:29.000Z</time>
      </trkpt>
      <trkpt lat="36.0885501466691493988037109375" lon="-5.79048760235309600830078125">
        <ele>90.1999969482421875</ele>
        <time>2021-04-04T11:12:41.000Z</time>
      </trkpt>
      <trkpt lat="36.08851821161806583404541015625" lon="-5.7905501313507556915283203125">
        <ele>89.40000152587890625</ele>
        <time>2021-04-04T11:12:46.000Z</time>
      </trkpt>
      <trkpt lat="36.08850203454494476318359375" lon="-5.7905632071197032928466796875">
        <ele>88</ele>
        <time>2021-04-04T11:12:48.000Z</time>
      </trkpt>
      <trkpt lat="36.08849960379302501678466796875" lon="-5.7905675657093524932861328125">
        <ele>86.8000030517578125</ele>
        <time>2021-04-04T11:12:49.000Z</time>
      </trkpt>
      <trkpt lat="36.08849340118467807769775390625" lon="-5.79056781716644763946533203125">
        <ele>86</ele>
        <time>2021-04-04T11:12:50.000Z</time>
      </trkpt>
      <trkpt lat="36.08848904259502887725830078125" lon="-5.79056538641452789306640625">
        <ele>85.1999969482421875</ele>
        <time>2021-04-04T11:12:51.000Z</time>
      </trkpt>
      <trkpt lat="36.08847328461706638336181640625" lon="-5.790559016168117523193359375">
        <ele>83.59999847412109375</ele>
        <time>2021-04-04T11:12:53.000Z</time>
      </trkpt>
      <trkpt lat="36.08845752663910388946533203125" lon="-5.79055021516978740692138671875">
        <ele>82.1999969482421875</ele>
        <time>2021-04-04T11:12:55.000Z</time>
      </trkpt>
      <trkpt lat="36.08843187801539897918701171875" lon="-5.79052825458347797393798828125">
        <ele>81.59999847412109375</ele>
        <time>2021-04-04T11:12:57.000Z</time>
      </trkpt>
      <trkpt lat="36.08842450194060802459716796875" lon="-5.7905176095664501190185546875">
        <ele>81.40000152587890625</ele>
        <time>2021-04-04T11:12:58.000Z</time>
      </trkpt>
      <trkpt lat="36.08842198736965656280517578125" lon="-5.79050512053072452545166015625">
        <ele>81.1999969482421875</ele>
        <time>2021-04-04T11:13:00.000Z</time>
      </trkpt>
      <trkpt lat="36.0883104242384433746337890625" lon="-5.7903325371444225311279296875">
        <ele>81.1999969482421875</ele>
        <time>2021-04-04T11:13:31.000Z</time>
      </trkpt>
      <trkpt lat="36.08832241035997867584228515625" lon="-5.79034150578081607818603515625">
        <ele>81.1999969482421875</ele>
        <time>2021-04-04T11:13:51.000Z</time>
      </trkpt>
      <trkpt lat="36.08831503428518772125244140625" lon="-5.79034888185560703277587890625">
        <ele>81.1999969482421875</ele>
        <time>2021-04-04T11:13:57.000Z</time>
      </trkpt>
      <trkpt lat="36.08832232654094696044921875" lon="-5.79035609029233455657958984375">
        <ele>81.40000152587890625</ele>
        <time>2021-04-04T11:14:06.000Z</time>
      </trkpt>
      <trkpt lat="36.08831352554261684417724609375" lon="-5.79039783217012882232666015625">
        <ele>81.40000152587890625</ele>
        <time>2021-04-04T11:14:15.000Z</time>
      </trkpt>
      <trkpt lat="36.08829407952725887298583984375" lon="-5.79040847718715667724609375">
        <ele>81.59999847412109375</ele>
        <time>2021-04-04T11:14:19.000Z</time>
      </trkpt>
      <trkpt lat="36.0882882960140705108642578125" lon="-5.7904217205941677093505859375">
        <ele>81.40000152587890625</ele>
        <time>2021-04-04T11:14:23.000Z</time>
      </trkpt>
      <trkpt lat="36.08828343451023101806640625" lon="-5.79042934812605381011962890625">
        <ele>82.1999969482421875</ele>
        <time>2021-04-04T11:16:33.000Z</time>
      </trkpt>
      <trkpt lat="36.0882846079766750335693359375" lon="-5.79043018631637096405029296875">
        <ele>82.1999969482421875</ele>
        <time>2021-04-04T11:16:34.000Z</time>
      </trkpt>
      <trkpt lat="36.0882768966257572174072265625" lon="-5.7904287613928318023681640625">
        <ele>82.1999969482421875</ele>
        <time>2021-04-04T11:16:36.000Z</time>
      </trkpt>
      <trkpt lat="36.0881245136260986328125" lon="-5.7905258238315582275390625">
        <ele>81.8000030517578125</ele>
        <time>2021-04-04T11:17:01.000Z</time>
      </trkpt>
      <trkpt lat="36.087949834764003753662109375" lon="-5.79059220850467681884765625">
        <ele>81.1999969482421875</ele>
        <time>2021-04-04T11:17:27.000Z</time>
      </trkpt>
      <trkpt lat="36.08796953223645687103271484375" lon="-5.79071131534874439239501953125">
        <ele>81</ele>
        <time>2021-04-04T11:17:37.000Z</time>
      </trkpt>
      <trkpt lat="36.08797187916934490203857421875" lon="-5.7909415662288665771484375">
        <ele>80.8000030517578125</ele>
        <time>2021-04-04T11:18:00.000Z</time>
      </trkpt>
      <trkpt lat="36.08793600462377071380615234375" lon="-5.7911360263824462890625">
        <ele>81.1999969482421875</ele>
        <time>2021-04-04T11:18:24.000Z</time>
      </trkpt>
      <trkpt lat="36.08793851919472217559814453125" lon="-5.79115421511232852935791015625">
        <ele>81.1999969482421875</ele>
        <time>2021-04-04T11:18:26.000Z</time>
      </trkpt>
      <trkpt lat="36.08795025385916233062744140625" lon="-5.79117516987025737762451171875">
        <ele>81.1999969482421875</ele>
        <time>2021-04-04T11:18:28.000Z</time>
      </trkpt>
      <trkpt lat="36.08796467073261737823486328125" lon="-5.79121716320514678955078125">
        <ele>81.1999969482421875</ele>
        <time>2021-04-04T11:18:31.000Z</time>
      </trkpt>
      <trkpt lat="36.0879758186638355255126953125" lon="-5.7912364415824413299560546875">
        <ele>81.1999969482421875</ele>
        <time>2021-04-04T11:18:33.000Z</time>
      </trkpt>
      <trkpt lat="36.0879919119179248809814453125" lon="-5.79126301221549510955810546875">
        <ele>81.1999969482421875</ele>
        <time>2021-04-04T11:18:36.000Z</time>
      </trkpt>
      <trkpt lat="36.08799316920340061187744140625" lon="-5.79127642326056957244873046875">
        <ele>81</ele>
        <time>2021-04-04T11:18:38.000Z</time>
      </trkpt>
      <trkpt lat="36.08799316920340061187744140625" lon="-5.79127642326056957244873046875">
        <ele>81</ele>
        <time>2021-04-04T11:18:39.000Z</time>
      </trkpt>
      <trkpt lat="36.08799107372760772705078125" lon="-5.79128648154437541961669921875">
        <ele>81</ele>
        <time>2021-04-04T11:18:40.000Z</time>
      </trkpt>
      <trkpt lat="36.08798797242343425750732421875" lon="-5.79130508936941623687744140625">
        <ele>80.8000030517578125</ele>
        <time>2021-04-04T11:18:42.000Z</time>
      </trkpt>
      <trkpt lat="36.08800046145915985107421875" lon="-5.79136275686323642730712890625">
        <ele>80.59999847412109375</ele>
        <time>2021-04-04T11:18:48.000Z</time>
      </trkpt>
      <trkpt lat="36.088002137839794158935546875" lon="-5.79137013293802738189697265625">
        <ele>80.40000152587890625</ele>
        <time>2021-04-04T11:18:49.000Z</time>
      </trkpt>
      <trkpt lat="36.0880053229629993438720703125" lon="-5.79138035885989665985107421875">
        <ele>80.40000152587890625</ele>
        <time>2021-04-04T11:18:50.000Z</time>
      </trkpt>
      <trkpt lat="36.08801580034196376800537109375" lon="-5.79143106937408447265625">
        <ele>80.40000152587890625</ele>
        <time>2021-04-04T11:18:54.000Z</time>
      </trkpt>
      <trkpt lat="36.08803776092827320098876953125" lon="-5.79153022728860378265380859375">
        <ele>80.59999847412109375</ele>
        <time>2021-04-04T11:19:06.000Z</time>
      </trkpt>
      <trkpt lat="36.088048405945301055908203125" lon="-5.79156593419611454010009765625">
        <ele>80.8000030517578125</ele>
        <time>2021-04-04T11:19:10.000Z</time>
      </trkpt>
      <trkpt lat="36.08808738179504871368408203125" lon="-5.79173692502081394195556640625">
        <ele>81.1999969482421875</ele>
        <time>2021-04-04T11:19:40.000Z</time>
      </trkpt>
      <trkpt lat="36.0881124436855316162109375" lon="-5.79188243485987186431884765625">
        <ele>81.1999969482421875</ele>
        <time>2021-04-04T11:19:57.000Z</time>
      </trkpt>
      <trkpt lat="36.08811504207551479339599609375" lon="-5.79189048148691654205322265625">
        <ele>81.1999969482421875</ele>
        <time>2021-04-04T11:19:58.000Z</time>
      </trkpt>
      <trkpt lat="36.0881206579506397247314453125" lon="-5.7918979413807392120361328125">
        <ele>81.1999969482421875</ele>
        <time>2021-04-04T11:19:59.000Z</time>
      </trkpt>
      <trkpt lat="36.08812359161674976348876953125" lon="-5.791931636631488800048828125">
        <ele>81.40000152587890625</ele>
        <time>2021-04-04T11:20:04.000Z</time>
      </trkpt>
      <trkpt lat="36.08812116086483001708984375" lon="-5.79201243817806243896484375">
        <ele>81.40000152587890625</ele>
        <time>2021-04-04T11:20:12.000Z</time>
      </trkpt>
      <trkpt lat="36.0882266052067279815673828125" lon="-5.7920823432505130767822265625">
        <ele>82</ele>
        <time>2021-04-04T11:20:41.000Z</time>
      </trkpt>
      <trkpt lat="36.08832073397934436798095703125" lon="-5.7921136915683746337890625">
        <ele>82.40000152587890625</ele>
        <time>2021-04-04T11:20:54.000Z</time>
      </trkpt>
      <trkpt lat="36.0883516632020473480224609375" lon="-5.79217202961444854736328125">
        <ele>82.8000030517578125</ele>
        <time>2021-04-04T11:21:01.000Z</time>
      </trkpt>
      <trkpt lat="36.0883935727179050445556640625" lon="-5.7922523282468318939208984375">
        <ele>83.1999969482421875</ele>
        <time>2021-04-04T11:21:10.000Z</time>
      </trkpt>
      <trkpt lat="36.08854872174561023712158203125" lon="-5.79234997741878032684326171875">
        <ele>82.59999847412109375</ele>
        <time>2021-04-04T11:21:39.000Z</time>
      </trkpt>
      <trkpt lat="36.08859113417565822601318359375" lon="-5.79240781255066394805908203125">
        <ele>82.40000152587890625</ele>
        <time>2021-04-04T11:21:54.000Z</time>
      </trkpt>
      <trkpt lat="36.08867227099835872650146484375" lon="-5.792401693761348724365234375">
        <ele>82.40000152587890625</ele>
        <time>2021-04-04T11:22:04.000Z</time>
      </trkpt>
      <trkpt lat="36.08869892545044422149658203125" lon="-5.79240060411393642425537109375">
        <ele>82</ele>
        <time>2021-04-04T11:22:10.000Z</time>
      </trkpt>
      <trkpt lat="36.0888743586838245391845703125" lon="-5.79244150780141353607177734375">
        <ele>81.8000030517578125</ele>
        <time>2021-04-04T11:22:41.000Z</time>
      </trkpt>
      <trkpt lat="36.0889823175966739654541015625" lon="-5.7924303598701953887939453125">
        <ele>81.8000030517578125</ele>
        <time>2021-04-04T11:22:54.000Z</time>
      </trkpt>
      <trkpt lat="36.08905700035393238067626953125" lon="-5.79228493385016918182373046875">
        <ele>81.59999847412109375</ele>
        <time>2021-04-04T11:23:16.000Z</time>
      </trkpt>
      <trkpt lat="36.0891244746744632720947265625" lon="-5.79218544065952301025390625">
        <ele>81.40000152587890625</ele>
        <time>2021-04-04T11:23:30.000Z</time>
      </trkpt>
      <trkpt lat="36.08918457292020320892333984375" lon="-5.7921379990875720977783203125">
        <ele>81.59999847412109375</ele>
        <time>2021-04-04T11:23:41.000Z</time>
      </trkpt>
      <trkpt lat="36.0891972295939922332763671875" lon="-5.79213456250727176666259765625">
        <ele>81.8000030517578125</ele>
        <time>2021-04-04T11:23:44.000Z</time>
      </trkpt>
      <trkpt lat="36.0891995765268802642822265625" lon="-5.79213221557438373565673828125">
        <ele>81.8000030517578125</ele>
        <time>2021-04-04T11:23:45.000Z</time>
      </trkpt>
      <trkpt lat="36.08920485712587833404541015625" lon="-5.79213120974600315093994140625">
        <ele>81.8000030517578125</ele>
        <time>2021-04-04T11:23:46.000Z</time>
      </trkpt>
      <trkpt lat="36.08921843580901622772216796875" lon="-5.79212601296603679656982421875">
        <ele>81.8000030517578125</ele>
        <time>2021-04-04T11:23:50.000Z</time>
      </trkpt>
      <trkpt lat="36.08925975859165191650390625" lon="-5.79206968657672405242919921875">
        <ele>81.8000030517578125</ele>
        <time>2021-04-04T11:23:59.000Z</time>
      </trkpt>
      <trkpt lat="36.089259423315525054931640625" lon="-5.7920297048985958099365234375">
        <ele>81.59999847412109375</ele>
        <time>2021-04-04T11:24:03.000Z</time>
      </trkpt>
      <trkpt lat="36.0893087089061737060546875" lon="-5.791909508407115936279296875">
        <ele>81.59999847412109375</ele>
        <time>2021-04-04T11:24:17.000Z</time>
      </trkpt>
      <trkpt lat="36.0893112234771251678466796875" lon="-5.79181797802448272705078125">
        <ele>81.8000030517578125</ele>
        <time>2021-04-04T11:24:32.000Z</time>
      </trkpt>
      <trkpt lat="36.08930594287812709808349609375" lon="-5.7916957698762416839599609375">
        <ele>81.8000030517578125</ele>
        <time>2021-04-04T11:24:45.000Z</time>
      </trkpt>
      <trkpt lat="36.08930543996393680572509765625" lon="-5.79167707823216915130615234375">
        <ele>81.8000030517578125</ele>
        <time>2021-04-04T11:24:46.000Z</time>
      </trkpt>
      <trkpt lat="36.08930828981101512908935546875" lon="-5.791659392416477203369140625">
        <ele>81.8000030517578125</ele>
        <time>2021-04-04T11:24:49.000Z</time>
      </trkpt>
      <trkpt lat="36.0893088765442371368408203125" lon="-5.79165210016071796417236328125">
        <ele>81.59999847412109375</ele>
        <time>2021-04-04T11:24:50.000Z</time>
      </trkpt>
      <trkpt lat="36.0893082059919834136962890625" lon="-5.7916354201734066009521484375">
        <ele>81.59999847412109375</ele>
        <time>2021-04-04T11:24:52.000Z</time>
      </trkpt>
      <trkpt lat="36.08930963091552257537841796875" lon="-5.7916303910315036773681640625">
        <ele>81.40000152587890625</ele>
        <time>2021-04-04T11:24:53.000Z</time>
      </trkpt>
      <trkpt lat="36.08930778689682483673095703125" lon="-5.7916223444044589996337890625">
        <ele>81.40000152587890625</ele>
        <time>2021-04-04T11:24:56.000Z</time>
      </trkpt>
      <trkpt lat="36.0893025062978267669677734375" lon="-5.7916193269193172454833984375">
        <ele>81.40000152587890625</ele>
        <time>2021-04-04T11:24:57.000Z</time>
      </trkpt>
      <trkpt lat="36.08930191956460475921630859375" lon="-5.7915933430194854736328125">
        <ele>81.1999969482421875</ele>
        <time>2021-04-04T11:25:02.000Z</time>
      </trkpt>
      <trkpt lat="36.0892964713275432586669921875" lon="-5.79157565720379352569580078125">
        <ele>81.1999969482421875</ele>
        <time>2021-04-04T11:25:07.000Z</time>
      </trkpt>
      <trkpt lat="36.0892964713275432586669921875" lon="-5.79157565720379352569580078125">
        <ele>81.1999969482421875</ele>
        <time>2021-04-04T11:25:08.000Z</time>
      </trkpt>
      <trkpt lat="36.089277528226375579833984375" lon="-5.791544057428836822509765625">
        <ele>81.1999969482421875</ele>
        <time>2021-04-04T11:25:17.000Z</time>
      </trkpt>
      <trkpt lat="36.08926604501903057098388671875" lon="-5.79150876961648464202880859375">
        <ele>81.1999969482421875</ele>
        <time>2021-04-04T11:25:25.000Z</time>
      </trkpt>
      <trkpt lat="36.0892602615058422088623046875" lon="-5.791452191770076751708984375">
        <ele>81.1999969482421875</ele>
        <time>2021-04-04T11:25:32.000Z</time>
      </trkpt>
      <trkpt lat="36.08926244080066680908203125" lon="-5.7914312370121479034423828125">
        <ele>81.1999969482421875</ele>
        <time>2021-04-04T11:25:37.000Z</time>
      </trkpt>
      <trkpt lat="36.0892569087445735931396484375" lon="-5.79142293892800807952880859375">
        <ele>81.1999969482421875</ele>
        <time>2021-04-04T11:25:42.000Z</time>
      </trkpt>
      <trkpt lat="36.08925229869782924652099609375" lon="-5.7914138026535511016845703125">
        <ele>81</ele>
        <time>2021-04-04T11:25:47.000Z</time>
      </trkpt>
      <trkpt lat="36.08924609608948230743408203125" lon="-5.79140651039779186248779296875">
        <ele>81</ele>
        <time>2021-04-04T11:25:48.000Z</time>
      </trkpt>
      <trkpt lat="36.0892067849636077880859375" lon="-5.79134498722851276397705078125">
        <ele>80.8000030517578125</ele>
        <time>2021-04-04T11:26:04.000Z</time>
      </trkpt>
      <trkpt lat="36.0891831479966640472412109375" lon="-5.79128681682050228118896484375">
        <ele>80.40000152587890625</ele>
        <time>2021-04-04T11:26:12.000Z</time>
      </trkpt>
      <trkpt lat="36.08917267061769962310791015625" lon="-5.79126351512968540191650390625">
        <ele>80.40000152587890625</ele>
        <time>2021-04-04T11:26:18.000Z</time>
      </trkpt>
      <trkpt lat="36.08917669393122196197509765625" lon="-5.79123996198177337646484375">
        <ele>80.40000152587890625</ele>
        <time>2021-04-04T11:26:21.000Z</time>
      </trkpt>
      <trkpt lat="36.089181639254093170166015625" lon="-5.79123367555439472198486328125">
        <ele>80.40000152587890625</ele>
        <time>2021-04-04T11:26:22.000Z</time>
      </trkpt>
      <trkpt lat="36.08917602337896823883056640625" lon="-5.791183300316333770751953125">
        <ele>80.59999847412109375</ele>
        <time>2021-04-04T11:26:28.000Z</time>
      </trkpt>
      <trkpt lat="36.089168228209018707275390625" lon="-5.7909427396953105926513671875">
        <ele>80.8000030517578125</ele>
        <time>2021-04-04T11:26:53.000Z</time>
      </trkpt>
      <trkpt lat="36.0891811363399028778076171875" lon="-5.790903680026531219482421875">
        <ele>81</ele>
        <time>2021-04-04T11:26:59.000Z</time>
      </trkpt>
      <trkpt lat="36.089189685881137847900390625" lon="-5.7908954657614231109619140625">
        <ele>81</ele>
        <time>2021-04-04T11:27:00.000Z</time>
      </trkpt>
      <trkpt lat="36.0891955532133579254150390625" lon="-5.7908877544105052947998046875">
        <ele>81</ele>
        <time>2021-04-04T11:27:01.000Z</time>
      </trkpt>
      <trkpt lat="36.08919949270784854888916015625" lon="-5.790880210697650909423828125">
        <ele>81</ele>
        <time>2021-04-04T11:27:02.000Z</time>
      </trkpt>
      <trkpt lat="36.0892617702484130859375" lon="-5.79083000309765338897705078125">
        <ele>81</ele>
        <time>2021-04-04T11:27:12.000Z</time>
      </trkpt>
      <trkpt lat="36.08937484212219715118408203125" lon="-5.790674686431884765625">
        <ele>80.1999969482421875</ele>
        <time>2021-04-04T11:27:38.000Z</time>
      </trkpt>
      <trkpt lat="36.08937668614089488983154296875" lon="-5.79066923819482326507568359375">
        <ele>80</ele>
        <time>2021-04-04T11:27:42.000Z</time>
      </trkpt>
      <trkpt lat="36.089473664760589599609375" lon="-5.790479220449924468994140625">
        <ele>79.1999969482421875</ele>
        <time>2021-04-04T11:28:13.000Z</time>
      </trkpt>
      <trkpt lat="36.08950124122202396392822265625" lon="-5.79043353907763957977294921875">
        <ele>79</ele>
        <time>2021-04-04T11:28:23.000Z</time>
      </trkpt>
      <trkpt lat="36.08958740718662738800048828125" lon="-5.7903161086142063140869140625">
        <ele>77.8000030517578125</ele>
        <time>2021-04-04T11:28:54.000Z</time>
      </trkpt>
      <trkpt lat="36.0895794443786144256591796875" lon="-5.79021535813808441162109375">
        <ele>77.1999969482421875</ele>
        <time>2021-04-04T11:29:17.000Z</time>
      </trkpt>
      <trkpt lat="36.089506186544895172119140625" lon="-5.79015961848199367523193359375">
        <ele>78</ele>
        <time>2021-04-04T11:29:32.000Z</time>
      </trkpt>
      <trkpt lat="36.08946352265775203704833984375" lon="-5.79010463319718837738037109375">
        <ele>78.8000030517578125</ele>
        <time>2021-04-04T11:29:47.000Z</time>
      </trkpt>
      <trkpt lat="36.08945178799331188201904296875" lon="-5.7900877855718135833740234375">
        <ele>79.8000030517578125</ele>
        <time>2021-04-04T11:30:47.000Z</time>
      </trkpt>
      <trkpt lat="36.08945564366877079010009765625" lon="-5.790058113634586334228515625">
        <ele>79.40000152587890625</ele>
        <time>2021-04-04T11:30:59.000Z</time>
      </trkpt>
      <trkpt lat="36.089483387768268585205078125" lon="-5.79000857658684253692626953125">
        <ele>79.1999969482421875</ele>
        <time>2021-04-04T11:31:08.000Z</time>
      </trkpt>
      <trkpt lat="36.0894857347011566162109375" lon="-5.7900096662342548370361328125">
        <ele>79.1999969482421875</ele>
        <time>2021-04-04T11:31:10.000Z</time>
      </trkpt>
      <trkpt lat="36.08931331895291805267333984375" lon="-5.78976114280521869659423828125">
        <ele>73</ele>
        <time>2021-04-04T12:48:00.000Z</time>
      </trkpt>
      <trkpt lat="36.0893261432647705078125" lon="-5.78978176228702068328857421875">
        <ele>72.1999969482421875</ele>
        <time>2021-04-04T12:48:03.000Z</time>
      </trkpt>
      <trkpt lat="36.0893209464848041534423828125" lon="-5.7897853665053844451904296875">
        <ele>73.59999847412109375</ele>
        <time>2021-04-04T12:48:06.000Z</time>
      </trkpt>
      <trkpt lat="36.08932153321802616119384765625" lon="-5.78976717777550220489501953125">
        <ele>73</ele>
        <time>2021-04-04T12:48:16.000Z</time>
      </trkpt>
      <trkpt lat="36.08931063674390316009521484375" lon="-5.7897622324526309967041015625">
        <ele>73</ele>
        <time>2021-04-04T12:48:18.000Z</time>
      </trkpt>
      <trkpt lat="36.08930812217295169830322265625" lon="-5.789761058986186981201171875">
        <ele>73.1999969482421875</ele>
        <time>2021-04-04T12:48:19.000Z</time>
      </trkpt>
      <trkpt lat="36.08930644579231739044189453125" lon="-5.789759717881679534912109375">
        <ele>73</ele>
        <time>2021-04-04T12:48:20.000Z</time>
      </trkpt>
      <trkpt lat="36.08930124901235103607177734375" lon="-5.78975410200655460357666015625">
        <ele>73.59999847412109375</ele>
        <time>2021-04-04T12:48:21.000Z</time>
      </trkpt>
      <trkpt lat="36.08929571695625782012939453125" lon="-5.7897501625120639801025390625">
        <ele>73.40000152587890625</ele>
        <time>2021-04-04T12:48:22.000Z</time>
      </trkpt>
      <trkpt lat="36.08929060399532318115234375" lon="-5.78974773176014423370361328125">
        <ele>73.40000152587890625</ele>
        <time>2021-04-04T12:48:23.000Z</time>
      </trkpt>
      <trkpt lat="36.08926512300968170166015625" lon="-5.78972308896481990814208984375">
        <ele>73.59999847412109375</ele>
        <time>2021-04-04T12:48:27.000Z</time>
      </trkpt>
      <trkpt lat="36.08923687599599361419677734375" lon="-5.78970615752041339874267578125">
        <ele>74.59999847412109375</ele>
        <time>2021-04-04T12:48:31.000Z</time>
      </trkpt>
      <trkpt lat="36.0892188549041748046875" lon="-5.78969366848468780517578125">
        <ele>74.59999847412109375</ele>
        <time>2021-04-04T12:48:33.000Z</time>
      </trkpt>
      <trkpt lat="36.089201085269451141357421875" lon="-5.789683945477008819580078125">
        <ele>74.1999969482421875</ele>
        <time>2021-04-04T12:48:35.000Z</time>
      </trkpt>
      <trkpt lat="36.08914953656494617462158203125" lon="-5.78965083695948123931884765625">
        <ele>74.40000152587890625</ele>
        <time>2021-04-04T12:48:42.000Z</time>
      </trkpt>
      <trkpt lat="36.08914417214691638946533203125" lon="-5.78964798711240291595458984375">
        <ele>74.40000152587890625</ele>
        <time>2021-04-04T12:48:43.000Z</time>
      </trkpt>
      <trkpt lat="36.08904761262238025665283203125" lon="-5.7895821891725063323974609375">
        <ele>74.8000030517578125</ele>
        <time>2021-04-04T12:49:00.000Z</time>
      </trkpt>
      <trkpt lat="36.08899329788982868194580078125" lon="-5.789555199444293975830078125">
        <ele>74.59999847412109375</ele>
        <time>2021-04-04T12:49:08.000Z</time>
      </trkpt>
      <trkpt lat="36.08887209556996822357177734375" lon="-5.78942536376416683197021484375">
        <ele>74.59999847412109375</ele>
        <time>2021-04-04T12:49:35.000Z</time>
      </trkpt>
      <trkpt lat="36.08886471949517726898193359375" lon="-5.7894145511090755462646484375">
        <ele>74.8000030517578125</ele>
        <time>2021-04-04T12:49:37.000Z</time>
      </trkpt>
      <trkpt lat="36.08885533176362514495849609375" lon="-5.78940264880657196044921875">
        <ele>74.8000030517578125</ele>
        <time>2021-04-04T12:49:39.000Z</time>
      </trkpt>
      <trkpt lat="36.08876598067581653594970703125" lon="-5.78929577954113483428955078125">
        <ele>75.59999847412109375</ele>
        <time>2021-04-04T12:50:11.000Z</time>
      </trkpt>
      <trkpt lat="36.08875072561204433441162109375" lon="-5.7892086915671825408935546875">
        <ele>75.8000030517578125</ele>
        <time>2021-04-04T12:50:33.000Z</time>
      </trkpt>
      <trkpt lat="36.08873429708182811737060546875" lon="-5.78916166909039020538330078125">
        <ele>74.59999847412109375</ele>
        <time>2021-04-04T12:50:48.000Z</time>
      </trkpt>
      <trkpt lat="36.088739074766635894775390625" lon="-5.7891104556620121002197265625">
        <ele>74.40000152587890625</ele>
        <time>2021-04-04T12:51:01.000Z</time>
      </trkpt>
      <trkpt lat="36.08874351717531681060791015625" lon="-5.7891302369534969329833984375">
        <ele>74.59999847412109375</ele>
        <time>2021-04-04T12:51:32.000Z</time>
      </trkpt>
      <trkpt lat="36.08874921686947345733642578125" lon="-5.78905957750976085662841796875">
        <ele>75</ele>
        <time>2021-04-04T12:52:03.000Z</time>
      </trkpt>
      <trkpt lat="36.0887486301362514495849609375" lon="-5.7890501059591770172119140625">
        <ele>75</ele>
        <time>2021-04-04T12:52:11.000Z</time>
      </trkpt>
      <trkpt lat="36.0887486301362514495849609375" lon="-5.78904993832111358642578125">
        <ele>75</ele>
        <time>2021-04-04T12:52:12.000Z</time>
      </trkpt>
      <trkpt lat="36.088749468326568603515625" lon="-5.789048261940479278564453125">
        <ele>75</ele>
        <time>2021-04-04T12:52:13.000Z</time>
      </trkpt>
      <trkpt lat="36.088748462498188018798828125" lon="-5.7889485172927379608154296875">
        <ele>75.59999847412109375</ele>
        <time>2021-04-04T12:52:29.000Z</time>
      </trkpt>
      <trkpt lat="36.08874552883207798004150390625" lon="-5.7889307476580142974853515625">
        <ele>75.8000030517578125</ele>
        <time>2021-04-04T12:52:32.000Z</time>
      </trkpt>
      <trkpt lat="36.08873999677598476409912109375" lon="-5.78890375792980194091796875">
        <ele>76.8000030517578125</ele>
        <time>2021-04-04T12:52:39.000Z</time>
      </trkpt>
      <trkpt lat="36.0887320339679718017578125" lon="-5.7888703979551792144775390625">
        <ele>77.1999969482421875</ele>
        <time>2021-04-04T12:52:47.000Z</time>
      </trkpt>
      <trkpt lat="36.08872591517865657806396484375" lon="-5.78885757364332675933837890625">
        <ele>77.1999969482421875</ele>
        <time>2021-04-04T12:52:53.000Z</time>
      </trkpt>
      <trkpt lat="36.08873513527214527130126953125" lon="-5.788859836757183074951171875">
        <ele>77.8000030517578125</ele>
        <time>2021-04-04T12:53:12.000Z</time>
      </trkpt>
      <trkpt lat="36.088704876601696014404296875" lon="-5.788753218948841094970703125">
        <ele>77.40000152587890625</ele>
        <time>2021-04-04T12:53:30.000Z</time>
      </trkpt>
      <trkpt lat="36.08868442475795745849609375" lon="-5.78871206380426883697509765625">
        <ele>76.59999847412109375</ele>
        <time>2021-04-04T12:53:37.000Z</time>
      </trkpt>
      <trkpt lat="36.0886648111045360565185546875" lon="-5.78863729722797870635986328125">
        <ele>75.59999847412109375</ele>
        <time>2021-04-04T12:53:48.000Z</time>
      </trkpt>
      <trkpt lat="36.08866087161004543304443359375" lon="-5.78858884982764720916748046875">
        <ele>74.59999847412109375</ele>
        <time>2021-04-04T12:53:53.000Z</time>
      </trkpt>
      <trkpt lat="36.088658608496189117431640625" lon="-5.7885575853288173675537109375">
        <ele>73.59999847412109375</ele>
        <time>2021-04-04T12:53:56.000Z</time>
      </trkpt>
      <trkpt lat="36.08865684829652309417724609375" lon="-5.7885490357875823974609375">
        <ele>73.40000152587890625</ele>
        <time>2021-04-04T12:53:57.000Z</time>
      </trkpt>
      <trkpt lat="36.088654585182666778564453125" lon="-5.7885039411485195159912109375">
        <ele>72.59999847412109375</ele>
        <time>2021-04-04T12:54:01.000Z</time>
      </trkpt>
      <trkpt lat="36.08866162598133087158203125" lon="-5.788484998047351837158203125">
        <ele>72.1999969482421875</ele>
        <time>2021-04-04T12:54:03.000Z</time>
      </trkpt>
      <trkpt lat="36.08866321854293346405029296875" lon="-5.7884365506470203399658203125">
        <ele>71.8000030517578125</ele>
        <time>2021-04-04T12:54:07.000Z</time>
      </trkpt>
      <trkpt lat="36.08867168426513671875" lon="-5.78838206827640533447265625">
        <ele>71.1999969482421875</ele>
        <time>2021-04-04T12:54:13.000Z</time>
      </trkpt>
      <trkpt lat="36.08864863403141498565673828125" lon="-5.78816891647875308990478515625">
        <ele>70.1999969482421875</ele>
        <time>2021-04-04T12:54:36.000Z</time>
      </trkpt>
      <trkpt lat="36.0886493884027004241943359375" lon="-5.78807554207742214202880859375">
        <ele>69.1999969482421875</ele>
        <time>2021-04-04T12:54:46.000Z</time>
      </trkpt>
      <trkpt lat="36.0886540822684764862060546875" lon="-5.78796423040330410003662109375">
        <ele>68.59999847412109375</ele>
        <time>2021-04-04T12:54:59.000Z</time>
      </trkpt>
      <trkpt lat="36.08864880166947841644287109375" lon="-5.78790119849145412445068359375">
        <ele>68.59999847412109375</ele>
        <time>2021-04-04T12:55:06.000Z</time>
      </trkpt>
      <trkpt lat="36.08865986578166484832763671875" lon="-5.78781570307910442352294921875">
        <ele>68</ele>
        <time>2021-04-04T12:55:15.000Z</time>
      </trkpt>
      <trkpt lat="36.088659949600696563720703125" lon="-5.787785947322845458984375">
        <ele>67</ele>
        <time>2021-04-04T12:55:19.000Z</time>
      </trkpt>
      <trkpt lat="36.08867277391254901885986328125" lon="-5.78764119185507297515869140625">
        <ele>66</ele>
        <time>2021-04-04T12:55:39.000Z</time>
      </trkpt>
      <trkpt lat="36.08865601010620594024658203125" lon="-5.787532813847064971923828125">
        <ele>65</ele>
        <time>2021-04-04T12:55:50.000Z</time>
      </trkpt>
      <trkpt lat="36.0886570997536182403564453125" lon="-5.78749031759798526763916015625">
        <ele>64.59999847412109375</ele>
        <time>2021-04-04T12:55:54.000Z</time>
      </trkpt>
      <trkpt lat="36.088657937943935394287109375" lon="-5.78744840808212757110595703125">
        <ele>63.799999237060546875</ele>
        <time>2021-04-04T12:56:00.000Z</time>
      </trkpt>
      <trkpt lat="36.08865919522941112518310546875" lon="-5.78736073337495326995849609375">
        <ele>63.200000762939453125</ele>
        <time>2021-04-04T12:56:12.000Z</time>
      </trkpt>
      <trkpt lat="36.0886587761342525482177734375" lon="-5.78735210001468658447265625">
        <ele>63.200000762939453125</ele>
        <time>2021-04-04T12:56:13.000Z</time>
      </trkpt>
      <trkpt lat="36.0886569321155548095703125" lon="-5.78734405338764190673828125">
        <ele>63.200000762939453125</ele>
        <time>2021-04-04T12:56:14.000Z</time>
      </trkpt>
      <trkpt lat="36.08865768648684024810791015625" lon="-5.78732586465775966644287109375">
        <ele>63.200000762939453125</ele>
        <time>2021-04-04T12:56:16.000Z</time>
      </trkpt>
      <trkpt lat="36.088660620152950286865234375" lon="-5.78731815330684185028076171875">
        <ele>63</ele>
        <time>2021-04-04T12:56:17.000Z</time>
      </trkpt>
      <trkpt lat="36.0886624641716480255126953125" lon="-5.7873090170323848724365234375">
        <ele>63</ele>
        <time>2021-04-04T12:56:18.000Z</time>
      </trkpt>
      <trkpt lat="36.08866606839001178741455078125" lon="-5.7872620783746242523193359375">
        <ele>62.799999237060546875</ele>
        <time>2021-04-04T12:56:23.000Z</time>
      </trkpt>
      <trkpt lat="36.08865198679268360137939453125" lon="-5.78719007782638072967529296875">
        <ele>61.799999237060546875</ele>
        <time>2021-04-04T12:56:30.000Z</time>
      </trkpt>
      <trkpt lat="36.0886500589549541473388671875" lon="-5.7871685363352298736572265625">
        <ele>61.59999847412109375</ele>
        <time>2021-04-04T12:56:32.000Z</time>
      </trkpt>
      <trkpt lat="36.08865114860236644744873046875" lon="-5.78710558824241161346435546875">
        <ele>60.59999847412109375</ele>
        <time>2021-04-04T12:56:39.000Z</time>
      </trkpt>
      <trkpt lat="36.0886524058878421783447265625" lon="-5.786986313760280609130859375">
        <ele>59.40000152587890625</ele>
        <time>2021-04-04T12:56:53.000Z</time>
      </trkpt>
      <trkpt lat="36.08865232206881046295166015625" lon="-5.7869787700474262237548828125">
        <ele>59.40000152587890625</ele>
        <time>2021-04-04T12:56:54.000Z</time>
      </trkpt>
      <trkpt lat="36.08865366317331790924072265625" lon="-5.7869744114577770233154296875">
        <ele>59.200000762939453125</ele>
        <time>2021-04-04T12:56:55.000Z</time>
      </trkpt>
      <trkpt lat="36.0886550880968570709228515625" lon="-5.7869665324687957763671875">
        <ele>59.200000762939453125</ele>
        <time>2021-04-04T12:56:56.000Z</time>
      </trkpt>
      <trkpt lat="36.0886607877910137176513671875" lon="-5.78694566152989864349365234375">
        <ele>59</ele>
        <time>2021-04-04T12:56:59.000Z</time>
      </trkpt>
      <trkpt lat="36.0886624641716480255126953125" lon="-5.7869395427405834197998046875">
        <ele>59</ele>
        <time>2021-04-04T12:57:00.000Z</time>
      </trkpt>
      <trkpt lat="36.08866321854293346405029296875" lon="-5.78692940063774585723876953125">
        <ele>59</ele>
        <time>2021-04-04T12:57:01.000Z</time>
      </trkpt>
      <trkpt lat="36.0886671580374240875244140625" lon="-5.786908529698848724365234375">
        <ele>58.799999237060546875</ele>
        <time>2021-04-04T12:57:03.000Z</time>
      </trkpt>
      <trkpt lat="36.0886674933135509490966796875" lon="-5.78689604066312313079833984375">
        <ele>58.799999237060546875</ele>
        <time>2021-04-04T12:57:04.000Z</time>
      </trkpt>
      <trkpt lat="36.0886684991419315338134765625" lon="-5.786884389817714691162109375">
        <ele>58.40000152587890625</ele>
        <time>2021-04-04T12:57:05.000Z</time>
      </trkpt>
      <trkpt lat="36.08866690658032894134521484375" lon="-5.78687240369617938995361328125">
        <ele>58.200000762939453125</ele>
        <time>2021-04-04T12:57:06.000Z</time>
      </trkpt>
      <trkpt lat="36.08867143280804157257080078125" lon="-5.78683569096028804779052734375">
        <ele>58</ele>
        <time>2021-04-04T12:57:10.000Z</time>
      </trkpt>
      <trkpt lat="36.08866657130420207977294921875" lon="-5.78679696656763553619384765625">
        <ele>57.59999847412109375</ele>
        <time>2021-04-04T12:57:15.000Z</time>
      </trkpt>
      <trkpt lat="36.0886544175446033477783203125" lon="-5.78676880337297916412353515625">
        <ele>57</ele>
        <time>2021-04-04T12:57:19.000Z</time>
      </trkpt>
      <trkpt lat="36.08866070397198200225830078125" lon="-5.78673225827515125274658203125">
        <ele>56.40000152587890625</ele>
        <time>2021-04-04T12:57:24.000Z</time>
      </trkpt>
      <trkpt lat="36.088653914630413055419921875" lon="-5.7866810448467731475830078125">
        <ele>56</ele>
        <time>2021-04-04T12:57:31.000Z</time>
      </trkpt>
      <trkpt lat="36.0886547528207302093505859375" lon="-5.78667509369552135467529296875">
        <ele>56</ele>
        <time>2021-04-04T12:57:32.000Z</time>
      </trkpt>
      <trkpt lat="36.088654585182666778564453125" lon="-5.78666168265044689178466796875">
        <ele>55.799999237060546875</ele>
        <time>2021-04-04T12:57:34.000Z</time>
      </trkpt>
      <trkpt lat="36.08864326961338520050048828125" lon="-5.78656126745045185089111328125">
        <ele>55</ele>
        <time>2021-04-04T12:57:47.000Z</time>
      </trkpt>
      <trkpt lat="36.08864176087081432342529296875" lon="-5.786553137004375457763671875">
        <ele>54.799999237060546875</ele>
        <time>2021-04-04T12:57:48.000Z</time>
      </trkpt>
      <trkpt lat="36.08862633816897869110107421875" lon="-5.7865011692047119140625">
        <ele>53.799999237060546875</ele>
        <time>2021-04-04T12:57:54.000Z</time>
      </trkpt>
      <trkpt lat="36.08860907144844532012939453125" lon="-5.78644417226314544677734375">
        <ele>53</ele>
        <time>2021-04-04T12:58:01.000Z</time>
      </trkpt>
      <trkpt lat="36.08859700150787830352783203125" lon="-5.7864208705723285675048828125">
        <ele>52.59999847412109375</ele>
        <time>2021-04-04T12:58:05.000Z</time>
      </trkpt>
      <trkpt lat="36.088584847748279571533203125" lon="-5.78633713535964488983154296875">
        <ele>51.59999847412109375</ele>
        <time>2021-04-04T12:58:17.000Z</time>
      </trkpt>
      <trkpt lat="36.08857135288417339324951171875" lon="-5.78621056862175464630126953125">
        <ele>50.799999237060546875</ele>
        <time>2021-04-04T12:58:34.000Z</time>
      </trkpt>
      <trkpt lat="36.088574118912220001220703125" lon="-5.78618190251290798187255859375">
        <ele>50.59999847412109375</ele>
        <time>2021-04-04T12:58:38.000Z</time>
      </trkpt>
      <trkpt lat="36.08856263570487499237060546875" lon="-5.7861377298831939697265625">
        <ele>49.40000152587890625</ele>
        <time>2021-04-04T12:58:46.000Z</time>
      </trkpt>
      <trkpt lat="36.0885524936020374298095703125" lon="-5.786108560860157012939453125">
        <ele>49</ele>
        <time>2021-04-04T12:58:51.000Z</time>
      </trkpt>
      <trkpt lat="36.08854084275662899017333984375" lon="-5.7860772125422954559326171875">
        <ele>48.40000152587890625</ele>
        <time>2021-04-04T12:58:56.000Z</time>
      </trkpt>
      <trkpt lat="36.08851485885679721832275390625" lon="-5.78598819673061370849609375">
        <ele>47.40000152587890625</ele>
        <time>2021-04-04T12:59:07.000Z</time>
      </trkpt>
      <trkpt lat="36.08849356882274150848388671875" lon="-5.78592172823846340179443359375">
        <ele>47</ele>
        <time>2021-04-04T12:59:16.000Z</time>
      </trkpt>
      <trkpt lat="36.08847546391189098358154296875" lon="-5.7858260907232761383056640625">
        <ele>46.40000152587890625</ele>
        <time>2021-04-04T12:59:29.000Z</time>
      </trkpt>
      <trkpt lat="36.08843254856765270233154296875" lon="-5.7857231609523296356201171875">
        <ele>45.200000762939453125</ele>
        <time>2021-04-04T12:59:44.000Z</time>
      </trkpt>
      <trkpt lat="36.0884093306958675384521484375" lon="-5.78568066470324993133544921875">
        <ele>44.200000762939453125</ele>
        <time>2021-04-04T12:59:53.000Z</time>
      </trkpt>
      <trkpt lat="36.08839818276464939117431640625" lon="-5.785638503730297088623046875">
        <ele>43.200000762939453125</ele>
        <time>2021-04-04T12:59:59.000Z</time>
      </trkpt>
      <trkpt lat="36.0883764736354351043701171875" lon="-5.7855892181396484375">
        <ele>42.200000762939453125</ele>
        <time>2021-04-04T13:00:06.000Z</time>
      </trkpt>
      <trkpt lat="36.08836784027516841888427734375" lon="-5.785567760467529296875">
        <ele>41.59999847412109375</ele>
        <time>2021-04-04T13:00:09.000Z</time>
      </trkpt>
      <trkpt lat="36.08836029656231403350830078125" lon="-5.78554906882345676422119140625">
        <ele>41.200000762939453125</ele>
        <time>2021-04-04T13:00:12.000Z</time>
      </trkpt>
      <trkpt lat="36.08835811726748943328857421875" lon="-5.7855451293289661407470703125">
        <ele>41</ele>
        <time>2021-04-04T13:00:13.000Z</time>
      </trkpt>
      <trkpt lat="36.0883432812988758087158203125" lon="-5.7855042256414890289306640625">
        <ele>40.59999847412109375</ele>
        <time>2021-04-04T13:00:21.000Z</time>
      </trkpt>
      <trkpt lat="36.08835560269653797149658203125" lon="-5.78544546850025653839111328125">
        <ele>40.59999847412109375</ele>
        <time>2021-04-04T13:00:38.000Z</time>
      </trkpt>
      <trkpt lat="36.08837731182575225830078125" lon="-5.78534672968089580535888671875">
        <ele>40</ele>
        <time>2021-04-04T13:00:52.000Z</time>
      </trkpt>
      <trkpt lat="36.08835359103977680206298828125" lon="-5.7852993719279766082763671875">
        <ele>39.59999847412109375</ele>
        <time>2021-04-04T13:01:02.000Z</time>
      </trkpt>
      <trkpt lat="36.08827915973961353302001953125" lon="-5.78524815849959850311279296875">
        <ele>39</ele>
        <time>2021-04-04T13:01:13.000Z</time>
      </trkpt>
      <trkpt lat="36.088228784501552581787109375" lon="-5.7852122001349925994873046875">
        <ele>38.40000152587890625</ele>
        <time>2021-04-04T13:01:20.000Z</time>
      </trkpt>
      <trkpt lat="36.0882224142551422119140625" lon="-5.785203315317630767822265625">
        <ele>38</ele>
        <time>2021-04-04T13:01:22.000Z</time>
      </trkpt>
      <trkpt lat="36.088185869157314300537109375" lon="-5.7851367630064487457275390625">
        <ele>37.200000762939453125</ele>
        <time>2021-04-04T13:01:28.000Z</time>
      </trkpt>
      <trkpt lat="36.08817539177834987640380859375" lon="-5.78511589206755161285400390625">
        <ele>36.799999237060546875</ele>
        <time>2021-04-04T13:01:30.000Z</time>
      </trkpt>
      <trkpt lat="36.08815334737300872802734375" lon="-5.7850596494972705841064453125">
        <ele>35.799999237060546875</ele>
        <time>2021-04-04T13:01:36.000Z</time>
      </trkpt>
      <trkpt lat="36.08812124468386173248291015625" lon="-5.784993432462215423583984375">
        <ele>34.799999237060546875</ele>
        <time>2021-04-04T13:01:43.000Z</time>
      </trkpt>
      <trkpt lat="36.08811403624713420867919921875" lon="-5.784982703626155853271484375">
        <ele>34.40000152587890625</ele>
        <time>2021-04-04T13:01:44.000Z</time>
      </trkpt>
      <trkpt lat="36.0880936682224273681640625" lon="-5.784909613430500030517578125">
        <ele>33.40000152587890625</ele>
        <time>2021-04-04T13:01:52.000Z</time>
      </trkpt>
      <trkpt lat="36.0880572907626628875732421875" lon="-5.7847977988421916961669921875">
        <ele>32.200000762939453125</ele>
        <time>2021-04-04T13:02:03.000Z</time>
      </trkpt>
      <trkpt lat="36.08798512257635593414306640625" lon="-5.78469537198543548583984375">
        <ele>31.200000762939453125</ele>
        <time>2021-04-04T13:02:15.000Z</time>
      </trkpt>
      <trkpt lat="36.08791706152260303497314453125" lon="-5.784542150795459747314453125">
        <ele>30.200000762939453125</ele>
        <time>2021-04-04T13:02:34.000Z</time>
      </trkpt>
      <trkpt lat="36.08787842094898223876953125" lon="-5.78446470201015472412109375">
        <ele>29.3999996185302734375</ele>
        <time>2021-04-04T13:02:44.000Z</time>
      </trkpt>
      <trkpt lat="36.087862662971019744873046875" lon="-5.784430168569087982177734375">
        <ele>29.200000762939453125</ele>
        <time>2021-04-04T13:02:48.000Z</time>
      </trkpt>
      <trkpt lat="36.08785905875265598297119140625" lon="-5.7844239659607410430908203125">
        <ele>29</ele>
        <time>2021-04-04T13:02:49.000Z</time>
      </trkpt>
      <trkpt lat="36.087855286896228790283203125" lon="-5.78441600315272808074951171875">
        <ele>28.799999237060546875</ele>
        <time>2021-04-04T13:02:50.000Z</time>
      </trkpt>
      <trkpt lat="36.087850593030452728271484375" lon="-5.78440007753670215606689453125">
        <ele>28.799999237060546875</ele>
        <time>2021-04-04T13:02:52.000Z</time>
      </trkpt>
      <trkpt lat="36.087846569716930389404296875" lon="-5.78437426127493381500244140625">
        <ele>28.6000003814697265625</ele>
        <time>2021-04-04T13:02:55.000Z</time>
      </trkpt>
      <trkpt lat="36.0878356732428073883056640625" lon="-5.78434375114738941192626953125">
        <ele>28.3999996185302734375</ele>
        <time>2021-04-04T13:02:59.000Z</time>
      </trkpt>
      <trkpt lat="36.087762415409088134765625" lon="-5.784239731729030609130859375">
        <ele>28</ele>
        <time>2021-04-04T13:03:18.000Z</time>
      </trkpt>
      <trkpt lat="36.0877008922398090362548828125" lon="-5.7841269113123416900634765625">
        <ele>28.200000762939453125</ele>
        <time>2021-04-04T13:03:39.000Z</time>
      </trkpt>
      <trkpt lat="36.0876609943807125091552734375" lon="-5.7839971594512462615966796875">
        <ele>27.6000003814697265625</ele>
        <time>2021-04-04T13:03:53.000Z</time>
      </trkpt>
      <trkpt lat="36.08768236823379993438720703125" lon="-5.78397125937044620513916015625">
        <ele>27</ele>
        <time>2021-04-04T13:04:05.000Z</time>
      </trkpt>
      <trkpt lat="36.08768253587186336517333984375" lon="-5.783971510827541351318359375">
        <ele>27</ele>
        <time>2021-04-04T13:04:06.000Z</time>
      </trkpt>
      <trkpt lat="36.0876881517469882965087890625" lon="-5.783902443945407867431640625">
        <ele>27.6000003814697265625</ele>
        <time>2021-04-04T13:04:27.000Z</time>
      </trkpt>
      <trkpt lat="36.08771572820842266082763671875" lon="-5.78371234238147735595703125">
        <ele>27.200000762939453125</ele>
        <time>2021-04-04T13:04:51.000Z</time>
      </trkpt>
      <trkpt lat="36.08772058971226215362548828125" lon="-5.78369566239416599273681640625">
        <ele>27.200000762939453125</ele>
        <time>2021-04-04T13:04:53.000Z</time>
      </trkpt>
      <trkpt lat="36.087723188102245330810546875" lon="-5.78368895687162876129150390625">
        <ele>27.200000762939453125</ele>
        <time>2021-04-04T13:04:54.000Z</time>
      </trkpt>
      <trkpt lat="36.0877267085015773773193359375" lon="-5.78368074260652065277099609375">
        <ele>27.200000762939453125</ele>
        <time>2021-04-04T13:04:55.000Z</time>
      </trkpt>
      <trkpt lat="36.087746322154998779296875" lon="-5.78364151529967784881591796875">
        <ele>27</ele>
        <time>2021-04-04T13:05:00.000Z</time>
      </trkpt>
      <trkpt lat="36.08781027607619762420654296875" lon="-5.78343129716813564300537109375">
        <ele>27</ele>
        <time>2021-04-04T13:05:26.000Z</time>
      </trkpt>
      <trkpt lat="36.0878490842878818511962890625" lon="-5.78321236185729503631591796875">
        <ele>27</ele>
        <time>2021-04-04T13:05:53.000Z</time>
      </trkpt>
      <trkpt lat="36.08787498436868190765380859375" lon="-5.7831539399921894073486328125">
        <ele>26.799999237060546875</ele>
        <time>2021-04-04T13:05:59.000Z</time>
      </trkpt>
      <trkpt lat="36.0879292152822017669677734375" lon="-5.78299158252775669097900390625">
        <ele>26.6000003814697265625</ele>
        <time>2021-04-04T13:06:15.000Z</time>
      </trkpt>
      <trkpt lat="36.0879704542458057403564453125" lon="-5.78289066441357135772705078125">
        <ele>26.799999237060546875</ele>
        <time>2021-04-04T13:06:26.000Z</time>
      </trkpt>
      <trkpt lat="36.0880311392247676849365234375" lon="-5.78267675824463367462158203125">
        <ele>26.6000003814697265625</ele>
        <time>2021-04-04T13:06:58.000Z</time>
      </trkpt>
      <trkpt lat="36.088039018213748931884765625" lon="-5.78256393782794475555419921875">
        <ele>26.799999237060546875</ele>
        <time>2021-04-04T13:07:11.000Z</time>
      </trkpt>
      <trkpt lat="36.08806441538035869598388671875" lon="-5.7824471779167652130126953125">
        <ele>26.799999237060546875</ele>
        <time>2021-04-04T13:07:23.000Z</time>
      </trkpt>
      <trkpt lat="36.08812811784446239471435546875" lon="-5.78223184682428836822509765625">
        <ele>27</ele>
        <time>2021-04-04T13:07:47.000Z</time>
      </trkpt>
      <trkpt lat="36.0881588794291019439697265625" lon="-5.7820649631321430206298828125">
        <ele>27</ele>
        <time>2021-04-04T13:08:08.000Z</time>
      </trkpt>
      <trkpt lat="36.0881984420120716094970703125" lon="-5.78191350214183330535888671875">
        <ele>27.200000762939453125</ele>
        <time>2021-04-04T13:08:25.000Z</time>
      </trkpt>
      <trkpt lat="36.0882336460053920745849609375" lon="-5.7817943952977657318115234375">
        <ele>27.200000762939453125</ele>
        <time>2021-04-04T13:08:41.000Z</time>
      </trkpt>
      <trkpt lat="36.08823406510055065155029296875" lon="-5.7817836664617061614990234375">
        <ele>27.200000762939453125</ele>
        <time>2021-04-04T13:08:42.000Z</time>
      </trkpt>
      <trkpt lat="36.08823423273861408233642578125" lon="-5.78177318908274173736572265625">
        <ele>27.200000762939453125</ele>
        <time>2021-04-04T13:08:43.000Z</time>
      </trkpt>
      <trkpt lat="36.08823406510055065155029296875" lon="-5.7817601971328258514404296875">
        <ele>27.200000762939453125</ele>
        <time>2021-04-04T13:08:44.000Z</time>
      </trkpt>
      <trkpt lat="36.088238172233104705810546875" lon="-5.78172750771045684814453125">
        <ele>27</ele>
        <time>2021-04-04T13:08:47.000Z</time>
      </trkpt>
      <trkpt lat="36.08824328519403934478759765625" lon="-5.7817092351615428924560546875">
        <ele>27</ele>
        <time>2021-04-04T13:08:49.000Z</time>
      </trkpt>
      <trkpt lat="36.08825786970555782318115234375" lon="-5.781654082238674163818359375">
        <ele>27</ele>
        <time>2021-04-04T13:08:55.000Z</time>
      </trkpt>
      <trkpt lat="36.08826256357133388519287109375" lon="-5.7816133461892604827880859375">
        <ele>27</ele>
        <time>2021-04-04T13:08:59.000Z</time>
      </trkpt>
      <trkpt lat="36.0882571153342723846435546875" lon="-5.78153665177524089813232421875">
        <ele>27.200000762939453125</ele>
        <time>2021-04-04T13:09:09.000Z</time>
      </trkpt>
      <trkpt lat="36.0882614739239215850830078125" lon="-5.7814787328243255615234375">
        <ele>27.3999996185302734375</ele>
        <time>2021-04-04T13:09:16.000Z</time>
      </trkpt>
      <trkpt lat="36.08826139010488986968994140625" lon="-5.78146439976990222930908203125">
        <ele>27.3999996185302734375</ele>
        <time>2021-04-04T13:09:18.000Z</time>
      </trkpt>
      <trkpt lat="36.0882626473903656005859375" lon="-5.78145685605704784393310546875">
        <ele>27.3999996185302734375</ele>
        <time>2021-04-04T13:09:19.000Z</time>
      </trkpt>
      <trkpt lat="36.08826239593327045440673828125" lon="-5.7814490608870983123779296875">
        <ele>27.3999996185302734375</ele>
        <time>2021-04-04T13:09:20.000Z</time>
      </trkpt>
      <trkpt lat="36.08826306648552417755126953125" lon="-5.7814326323568820953369140625">
        <ele>27.3999996185302734375</ele>
        <time>2021-04-04T13:09:22.000Z</time>
      </trkpt>
      <trkpt lat="36.0882618092000484466552734375" lon="-5.78140824101865291595458984375">
        <ele>27.3999996185302734375</ele>
        <time>2021-04-04T13:09:24.000Z</time>
      </trkpt>
      <trkpt lat="36.08826139010488986968994140625" lon="-5.781397931277751922607421875">
        <ele>27.3999996185302734375</ele>
        <time>2021-04-04T13:09:25.000Z</time>
      </trkpt>
      <trkpt lat="36.08826734125614166259765625" lon="-5.7813660800457000732421875">
        <ele>27.3999996185302734375</ele>
        <time>2021-04-04T13:09:28.000Z</time>
      </trkpt>
      <trkpt lat="36.08827094547450542449951171875" lon="-5.78135493211448192596435546875">
        <ele>27.3999996185302734375</ele>
        <time>2021-04-04T13:09:29.000Z</time>
      </trkpt>
      <trkpt lat="36.0882921516895294189453125" lon="-5.7812639884650707244873046875">
        <ele>27</ele>
        <time>2021-04-04T13:09:38.000Z</time>
      </trkpt>
      <trkpt lat="36.08831788413226604461669921875" lon="-5.78114286996424198150634765625">
        <ele>27</ele>
        <time>2021-04-04T13:09:55.000Z</time>
      </trkpt>
      <trkpt lat="36.08831838704645633697509765625" lon="-5.7810785807669162750244140625">
        <ele>27.200000762939453125</ele>
        <time>2021-04-04T13:10:02.000Z</time>
      </trkpt>
      <trkpt lat="36.088317297399044036865234375" lon="-5.781002976000308990478515625">
        <ele>27</ele>
        <time>2021-04-04T13:10:11.000Z</time>
      </trkpt>
      <trkpt lat="36.0883167944848537445068359375" lon="-5.78089711256325244903564453125">
        <ele>27</ele>
        <time>2021-04-04T13:10:22.000Z</time>
      </trkpt>
      <trkpt lat="36.08830514363944530487060546875" lon="-5.7808162271976470947265625">
        <ele>27.3999996185302734375</ele>
        <time>2021-04-04T13:10:30.000Z</time>
      </trkpt>
      <trkpt lat="36.08829139731824398040771484375" lon="-5.780587233603000640869140625">
        <ele>27.6000003814697265625</ele>
        <time>2021-04-04T13:10:55.000Z</time>
      </trkpt>
      <trkpt lat="36.0882966779172420501708984375" lon="-5.7805029116570949554443359375">
        <ele>27.3999996185302734375</ele>
        <time>2021-04-04T13:11:03.000Z</time>
      </trkpt>
      <trkpt lat="36.0882950015366077423095703125" lon="-5.7802786119282245635986328125">
        <ele>26.6000003814697265625</ele>
        <time>2021-04-04T13:11:27.000Z</time>
      </trkpt>
      <trkpt lat="36.08830564655363559722900390625" lon="-5.7801817171275615692138671875">
        <ele>27</ele>
        <time>2021-04-04T13:11:37.000Z</time>
      </trkpt>
      <trkpt lat="36.0883137769997119903564453125" lon="-5.7799527235329151153564453125">
        <ele>27</ele>
        <time>2021-04-04T13:12:00.000Z</time>
      </trkpt>
      <trkpt lat="36.08832693658769130706787109375" lon="-5.779889523983001708984375">
        <ele>27</ele>
        <time>2021-04-04T13:12:07.000Z</time>
      </trkpt>
      <trkpt lat="36.0883157886564731597900390625" lon="-5.779664218425750732421875">
        <ele>27</ele>
        <time>2021-04-04T13:12:31.000Z</time>
      </trkpt>
      <trkpt lat="36.0883074067533016204833984375" lon="-5.779576711356639862060546875">
        <ele>27</ele>
        <time>2021-04-04T13:12:40.000Z</time>
      </trkpt>
      <trkpt lat="36.08828703872859477996826171875" lon="-5.77935584820806980133056640625">
        <ele>27</ele>
        <time>2021-04-04T13:13:02.000Z</time>
      </trkpt>
      <trkpt lat="36.08830112032592296600341796875" lon="-5.77913138084113597869873046875">
        <ele>26.799999237060546875</ele>
        <time>2021-04-04T13:13:25.000Z</time>
      </trkpt>
      <trkpt lat="36.08830229379236698150634765625" lon="-5.77904387377202510833740234375">
        <ele>27</ele>
        <time>2021-04-04T13:13:34.000Z</time>
      </trkpt>
      <trkpt lat="36.0882929898798465728759765625" lon="-5.7788188196718692779541015625">
        <ele>27.6000003814697265625</ele>
        <time>2021-04-04T13:14:00.000Z</time>
      </trkpt>
      <trkpt lat="36.08829014003276824951171875" lon="-5.77879945747554302215576171875">
        <ele>27.6000003814697265625</ele>
        <time>2021-04-04T13:14:03.000Z</time>
      </trkpt>
      <trkpt lat="36.0882869549095630645751953125" lon="-5.778784789144992828369140625">
        <ele>27.6000003814697265625</ele>
        <time>2021-04-04T13:14:05.000Z</time>
      </trkpt>
      <trkpt lat="36.0882829315960407257080078125" lon="-5.7787670195102691650390625">
        <ele>27.6000003814697265625</ele>
        <time>2021-04-04T13:14:07.000Z</time>
      </trkpt>
      <trkpt lat="36.0882809199392795562744140625" lon="-5.77875025570392608642578125">
        <ele>27.6000003814697265625</ele>
        <time>2021-04-04T13:14:09.000Z</time>
      </trkpt>
      <trkpt lat="36.0882772319018840789794921875" lon="-5.778711698949337005615234375">
        <ele>27.6000003814697265625</ele>
        <time>2021-04-04T13:14:13.000Z</time>
      </trkpt>
      <trkpt lat="36.08827781863510608673095703125" lon="-5.77867590822279453277587890625">
        <ele>27.799999237060546875</ele>
        <time>2021-04-04T13:14:17.000Z</time>
      </trkpt>
      <trkpt lat="36.08828075230121612548828125" lon="-5.77862762846052646636962890625">
        <ele>27.799999237060546875</ele>
        <time>2021-04-04T13:14:22.000Z</time>
      </trkpt>
      <trkpt lat="36.08828100375831127166748046875" lon="-5.778617821633815765380859375">
        <ele>27.799999237060546875</ele>
        <time>2021-04-04T13:14:23.000Z</time>
      </trkpt>
      <trkpt lat="36.088282763957977294921875" lon="-5.7786086015403270721435546875">
        <ele>27.799999237060546875</ele>
        <time>2021-04-04T13:14:24.000Z</time>
      </trkpt>
      <trkpt lat="36.08828217722475528717041015625" lon="-5.77859695069491863250732421875">
        <ele>27.799999237060546875</ele>
        <time>2021-04-04T13:14:25.000Z</time>
      </trkpt>
      <trkpt lat="36.0882814228534698486328125" lon="-5.7785864733159542083740234375">
        <ele>27.799999237060546875</ele>
        <time>2021-04-04T13:14:26.000Z</time>
      </trkpt>
      <trkpt lat="36.08828117139637470245361328125" lon="-5.7785780914127826690673828125">
        <ele>27.799999237060546875</ele>
        <time>2021-04-04T13:14:27.000Z</time>
      </trkpt>
      <trkpt lat="36.0882805846631526947021484375" lon="-5.7785673625767230987548828125">
        <ele>27.799999237060546875</ele>
        <time>2021-04-04T13:14:28.000Z</time>
      </trkpt>
      <trkpt lat="36.08828016556799411773681640625" lon="-5.7785573042929172515869140625">
        <ele>27.799999237060546875</ele>
        <time>2021-04-04T13:14:29.000Z</time>
      </trkpt>
      <trkpt lat="36.0882819257676601409912109375" lon="-5.7785475812852382659912109375">
        <ele>27.799999237060546875</ele>
        <time>2021-04-04T13:14:30.000Z</time>
      </trkpt>
      <trkpt lat="36.08827496878802776336669921875" lon="-5.77850944362580776214599609375">
        <ele>27.6000003814697265625</ele>
        <time>2021-04-04T13:14:34.000Z</time>
      </trkpt>
      <trkpt lat="36.08826474286615848541259765625" lon="-5.77847926877439022064208984375">
        <ele>27.3999996185302734375</ele>
        <time>2021-04-04T13:14:37.000Z</time>
      </trkpt>
      <trkpt lat="36.08824261464178562164306640625" lon="-5.77827692963182926177978515625">
        <ele>26.799999237060546875</ele>
        <time>2021-04-04T13:14:59.000Z</time>
      </trkpt>
      <trkpt lat="36.088246218860149383544921875" lon="-5.77820702455937862396240234375">
        <ele>27</ele>
        <time>2021-04-04T13:15:06.000Z</time>
      </trkpt>
      <trkpt lat="36.08824244700372219085693359375" lon="-5.77816821634769439697265625">
        <ele>27</ele>
        <time>2021-04-04T13:15:10.000Z</time>
      </trkpt>
      <trkpt lat="36.08824144117534160614013671875" lon="-5.77815891243517398834228515625">
        <ele>27</ele>
        <time>2021-04-04T13:15:11.000Z</time>
      </trkpt>
      <trkpt lat="36.08824144117534160614013671875" lon="-5.77814969234168529510498046875">
        <ele>27</ele>
        <time>2021-04-04T13:15:12.000Z</time>
      </trkpt>
      <trkpt lat="36.0882411897182464599609375" lon="-5.77814114280045032501220703125">
        <ele>27</ele>
        <time>2021-04-04T13:15:13.000Z</time>
      </trkpt>
      <trkpt lat="36.08823926188051700592041015625" lon="-5.77813259325921535491943359375">
        <ele>27</ele>
        <time>2021-04-04T13:15:14.000Z</time>
      </trkpt>
      <trkpt lat="36.08821998350322246551513671875" lon="-5.77804022468626499176025390625">
        <ele>27.6000003814697265625</ele>
        <time>2021-04-04T13:15:23.000Z</time>
      </trkpt>
      <trkpt lat="36.0881768167018890380859375" lon="-5.77781860716640949249267578125">
        <ele>27</ele>
        <time>2021-04-04T13:15:45.000Z</time>
      </trkpt>
      <trkpt lat="36.08813901431858539581298828125" lon="-5.7776002585887908935546875">
        <ele>26.6000003814697265625</ele>
        <time>2021-04-04T13:16:09.000Z</time>
      </trkpt>
      <trkpt lat="36.088127531111240386962890625" lon="-5.77749573625624179840087890625">
        <ele>26.799999237060546875</ele>
        <time>2021-04-04T13:16:20.000Z</time>
      </trkpt>
      <trkpt lat="36.0881179757416248321533203125" lon="-5.77737486921250820159912109375">
        <ele>27</ele>
        <time>2021-04-04T13:16:32.000Z</time>
      </trkpt>
      <trkpt lat="36.08809567987918853759765625" lon="-5.77718895860016345977783203125">
        <ele>26.799999237060546875</ele>
        <time>2021-04-04T13:16:52.000Z</time>
      </trkpt>
      <trkpt lat="36.08806575648486614227294921875" lon="-5.77696750871837139129638671875">
        <ele>26.799999237060546875</ele>
        <time>2021-04-04T13:17:15.000Z</time>
      </trkpt>
      <trkpt lat="36.088032312691211700439453125" lon="-5.77675276435911655426025390625">
        <ele>27.799999237060546875</ele>
        <time>2021-04-04T13:17:38.000Z</time>
      </trkpt>
      <trkpt lat="36.088008172810077667236328125" lon="-5.7766026444733142852783203125">
        <ele>27.200000762939453125</ele>
        <time>2021-04-04T13:17:54.000Z</time>
      </trkpt>
      <trkpt lat="36.08798981644213199615478515625" lon="-5.77649728395044803619384765625">
        <ele>27.3999996185302734375</ele>
        <time>2021-04-04T13:18:04.000Z</time>
      </trkpt>
      <trkpt lat="36.08798763714730739593505859375" lon="-5.7764886505901813507080078125">
        <ele>27.6000003814697265625</ele>
        <time>2021-04-04T13:18:05.000Z</time>
      </trkpt>
      <trkpt lat="36.08798830769956111907958984375" lon="-5.77646526508033275604248046875">
        <ele>27.6000003814697265625</ele>
        <time>2021-04-04T13:18:07.000Z</time>
      </trkpt>
      <trkpt lat="36.0879798419773578643798828125" lon="-5.7764457352459430694580078125">
        <ele>27.6000003814697265625</ele>
        <time>2021-04-04T13:18:09.000Z</time>
      </trkpt>
      <trkpt lat="36.0879734717309474945068359375" lon="-5.77642251737415790557861328125">
        <ele>27.6000003814697265625</ele>
        <time>2021-04-04T13:18:11.000Z</time>
      </trkpt>
      <trkpt lat="36.0879704542458057403564453125" lon="-5.77641178853809833526611328125">
        <ele>27.6000003814697265625</ele>
        <time>2021-04-04T13:18:12.000Z</time>
      </trkpt>
      <trkpt lat="36.08796835877001285552978515625" lon="-5.7764028199017047882080078125">
        <ele>27.6000003814697265625</ele>
        <time>2021-04-04T13:18:13.000Z</time>
      </trkpt>
      <trkpt lat="36.0879657603800296783447265625" lon="-5.77639334835112094879150390625">
        <ele>27.6000003814697265625</ele>
        <time>2021-04-04T13:18:14.000Z</time>
      </trkpt>
      <trkpt lat="36.08796450309455394744873046875" lon="-5.7763843797147274017333984375">
        <ele>27.6000003814697265625</ele>
        <time>2021-04-04T13:18:15.000Z</time>
      </trkpt>
      <trkpt lat="36.08796416781842708587646484375" lon="-5.7763746567070484161376953125">
        <ele>27.3999996185302734375</ele>
        <time>2021-04-04T13:18:16.000Z</time>
      </trkpt>
      <trkpt lat="36.087944805622100830078125" lon="-5.7761553861200809478759765625">
        <ele>26.799999237060546875</ele>
        <time>2021-04-04T13:18:39.000Z</time>
      </trkpt>
      <trkpt lat="36.08792711980640888214111328125" lon="-5.7760621793568134307861328125">
        <ele>27.200000762939453125</ele>
        <time>2021-04-04T13:18:49.000Z</time>
      </trkpt>
      <trkpt lat="36.08791823498904705047607421875" lon="-5.7759988121688365936279296875">
        <ele>27.6000003814697265625</ele>
        <time>2021-04-04T13:18:56.000Z</time>
      </trkpt>
      <trkpt lat="36.0878859646618366241455078125" lon="-5.7758398912847042083740234375">
        <ele>27.799999237060546875</ele>
        <time>2021-04-04T13:19:13.000Z</time>
      </trkpt>
      <trkpt lat="36.0878817737102508544921875" lon="-5.77581265009939670562744140625">
        <ele>27.6000003814697265625</ele>
        <time>2021-04-04T13:19:16.000Z</time>
      </trkpt>
      <trkpt lat="36.0878420434892177581787109375" lon="-5.77559472061693668365478515625">
        <ele>27.200000762939453125</ele>
        <time>2021-04-04T13:19:39.000Z</time>
      </trkpt>
      <trkpt lat="36.08783039264380931854248046875" lon="-5.77552246861159801483154296875">
        <ele>27.200000762939453125</ele>
        <time>2021-04-04T13:19:46.000Z</time>
      </trkpt>
      <trkpt lat="36.087829135358333587646484375" lon="-5.77531660906970500946044921875">
        <ele>27.6000003814697265625</ele>
        <time>2021-04-04T13:20:18.000Z</time>
      </trkpt>
      <trkpt lat="36.0878336615860462188720703125" lon="-5.77533337287604808807373046875">
        <ele>28</ele>
        <time>2021-04-04T13:20:38.000Z</time>
      </trkpt>
    </trkseg>
  </trk>
</gpx>
